<?xml version="1.0" encoding="UTF-8" standalone="no" ?>
<gpx xmlns="http://www.topografix.com/GPX/1/1" xmlns:xsi="http://www.w3.org/2001/XMLSchema-instance" xsi:schemaLocation="http://www.topografix.com/GPX/1/1 http://www.topografix.com/GPX/1/1/gpx.xsd" version="1.1" creator="VisuGPX - https://www.visugpx.com">
  <metadata>
    <name>Le puy de DOME</name>
    <desc><![CDATA[Le Puy de DOME 07 juillet 2018]]></desc>
  </metadata>
  <trk>
    <name><![CDATA[Puy de Dome_07/07/2018]]></name>
    <trkseg>
      <trkpt lat="45.76426" lon="2.95634">
        <ele>1095.4992237962</ele>
        <time>2018-07-07T07:40:22Z</time>
      </trkpt>
      <trkpt lat="45.76428" lon="2.9562">
        <ele>1090.8464895551</ele>
        <time>2018-07-07T07:40:42Z</time>
      </trkpt>
      <trkpt lat="45.76421" lon="2.9563">
        <ele>1081.7080175849</ele>
        <time>2018-07-07T07:41:01Z</time>
      </trkpt>
      <trkpt lat="45.76402" lon="2.95634">
        <ele>1080.7840939123</ele>
        <time>2018-07-07T07:41:21Z</time>
      </trkpt>
      <trkpt lat="45.76427" lon="2.95641">
        <ele>1081.3812367806</ele>
        <time>2018-07-07T07:41:40Z</time>
      </trkpt>
      <trkpt lat="45.76432" lon="2.95618">
        <ele>1082.1932396394</ele>
        <time>2018-07-07T07:41:59Z</time>
      </trkpt>
      <trkpt lat="45.7644" lon="2.95601">
        <ele>1083.0361993077</ele>
        <time>2018-07-07T07:42:18Z</time>
      </trkpt>
      <trkpt lat="45.76447" lon="2.95575">
        <ele>1083.9194820167</ele>
        <time>2018-07-07T07:42:38Z</time>
      </trkpt>
      <trkpt lat="45.76447" lon="2.95569">
        <ele>1084.4559766873</ele>
        <time>2018-07-07T07:42:58Z</time>
      </trkpt>
      <trkpt lat="45.76445" lon="2.9556">
        <ele>1085.1048999224</ele>
        <time>2018-07-07T07:43:18Z</time>
      </trkpt>
      <trkpt lat="45.76438" lon="2.95546">
        <ele>1085.5738505516</ele>
        <time>2018-07-07T07:43:37Z</time>
      </trkpt>
      <trkpt lat="45.76442" lon="2.95549">
        <ele>1085.9137574423</ele>
        <time>2018-07-07T07:43:56Z</time>
      </trkpt>
      <trkpt lat="45.76456" lon="2.95562">
        <ele>1086.2501593033</ele>
        <time>2018-07-07T07:44:16Z</time>
      </trkpt>
      <trkpt lat="45.76457" lon="2.95562">
        <ele>1086.288047402</ele>
        <time>2018-07-07T07:44:36Z</time>
      </trkpt>
      <trkpt lat="45.76456" lon="2.95561">
        <ele>1086.4657260448</ele>
        <time>2018-07-07T07:45:02Z</time>
      </trkpt>
      <trkpt lat="45.76458" lon="2.95561">
        <ele>1086.6750201477</ele>
        <time>2018-07-07T07:45:21Z</time>
      </trkpt>
      <trkpt lat="45.76467" lon="2.95574">
        <ele>1087.1274314821</ele>
        <time>2018-07-07T07:45:41Z</time>
      </trkpt>
      <trkpt lat="45.76484" lon="2.95587">
        <ele>1087.7215459046</ele>
        <time>2018-07-07T07:46:01Z</time>
      </trkpt>
      <trkpt lat="45.76497" lon="2.95609">
        <ele>1088.1853588115</ele>
        <time>2018-07-07T07:46:20Z</time>
      </trkpt>
      <trkpt lat="45.76501" lon="2.95629">
        <ele>1088.6340607304</ele>
        <time>2018-07-07T07:46:39Z</time>
      </trkpt>
      <trkpt lat="45.76505" lon="2.95658">
        <ele>1088.927896454</ele>
        <time>2018-07-07T07:46:59Z</time>
      </trkpt>
      <trkpt lat="45.76504" lon="2.95691">
        <ele>1089.1658260683</ele>
        <time>2018-07-07T07:47:19Z</time>
      </trkpt>
      <trkpt lat="45.76505" lon="2.95724">
        <ele>1089.4181290345</ele>
        <time>2018-07-07T07:47:39Z</time>
      </trkpt>
      <trkpt lat="45.76504" lon="2.95735">
        <ele>1089.7458030304</ele>
        <time>2018-07-07T07:47:57Z</time>
      </trkpt>
      <trkpt lat="45.7651" lon="2.95755">
        <ele>1090.4077331453</ele>
        <time>2018-07-07T07:48:17Z</time>
      </trkpt>
      <trkpt lat="45.76516" lon="2.95779">
        <ele>1091.2267504432</ele>
        <time>2018-07-07T07:48:36Z</time>
      </trkpt>
      <trkpt lat="45.76541" lon="2.95784">
        <ele>1092.4839217413</ele>
        <time>2018-07-07T07:48:56Z</time>
      </trkpt>
      <trkpt lat="45.76567" lon="2.9579">
        <ele>1094.2378657772</ele>
        <time>2018-07-07T07:49:15Z</time>
      </trkpt>
      <trkpt lat="45.76581" lon="2.95793">
        <ele>1095.2674291981</ele>
        <time>2018-07-07T07:49:34Z</time>
      </trkpt>
      <trkpt lat="45.76582" lon="2.95792">
        <ele>1095.4750935566</ele>
        <time>2018-07-07T07:49:53Z</time>
      </trkpt>
      <trkpt lat="45.76583" lon="2.95791">
        <ele>1096.580118507</ele>
        <time>2018-07-07T07:50:30Z</time>
      </trkpt>
      <trkpt lat="45.76579" lon="2.9579">
        <ele>1097.099611108</ele>
        <time>2018-07-07T07:50:49Z</time>
      </trkpt>
      <trkpt lat="45.76574" lon="2.95782">
        <ele>1098.8208037206</ele>
        <time>2018-07-07T07:51:08Z</time>
      </trkpt>
      <trkpt lat="45.76575" lon="2.95782">
        <ele>1100.6251599583</ele>
        <time>2018-07-07T07:51:28Z</time>
      </trkpt>
      <trkpt lat="45.76577" lon="2.95785">
        <ele>1102.2408256685</ele>
        <time>2018-07-07T07:51:48Z</time>
      </trkpt>
      <trkpt lat="45.76577" lon="2.95787">
        <ele>1103.0605872767</ele>
        <time>2018-07-07T07:52:07Z</time>
      </trkpt>
      <trkpt lat="45.76576" lon="2.95789">
        <ele>1105.1264229916</ele>
        <time>2018-07-07T07:52:27Z</time>
      </trkpt>
      <trkpt lat="45.76576" lon="2.95789">
        <ele>1106.1005037035</ele>
        <time>2018-07-07T07:52:53Z</time>
      </trkpt>
      <trkpt lat="45.76591" lon="2.95806">
        <ele>1112.1854589719</ele>
        <time>2018-07-07T07:53:13Z</time>
      </trkpt>
      <trkpt lat="45.76615" lon="2.95826">
        <ele>1116.751067187</ele>
        <time>2018-07-07T07:53:32Z</time>
      </trkpt>
      <trkpt lat="45.76627" lon="2.95849">
        <ele>1119.6072229578</ele>
        <time>2018-07-07T07:53:51Z</time>
      </trkpt>
      <trkpt lat="45.76643" lon="2.95827">
        <ele>1121.8728457834</ele>
        <time>2018-07-07T07:54:10Z</time>
      </trkpt>
      <trkpt lat="45.76652" lon="2.95813">
        <ele>1123.7536956882</ele>
        <time>2018-07-07T07:54:30Z</time>
      </trkpt>
      <trkpt lat="45.76651" lon="2.95776">
        <ele>1125.0696069498</ele>
        <time>2018-07-07T07:54:50Z</time>
      </trkpt>
      <trkpt lat="45.76649" lon="2.95755">
        <ele>1126.2868865552</ele>
        <time>2018-07-07T07:55:09Z</time>
      </trkpt>
      <trkpt lat="45.76669" lon="2.95751">
        <ele>1127.7775475595</ele>
        <time>2018-07-07T07:55:29Z</time>
      </trkpt>
      <trkpt lat="45.76681" lon="2.95753">
        <ele>1128.9091637601</ele>
        <time>2018-07-07T07:55:48Z</time>
      </trkpt>
      <trkpt lat="45.7669" lon="2.95752">
        <ele>1129.7520854723</ele>
        <time>2018-07-07T07:56:08Z</time>
      </trkpt>
      <trkpt lat="45.76692" lon="2.95752">
        <ele>1131.019202193</ele>
        <time>2018-07-07T07:56:27Z</time>
      </trkpt>
      <trkpt lat="45.76706" lon="2.95769">
        <ele>1133.046320021</ele>
        <time>2018-07-07T07:56:46Z</time>
      </trkpt>
      <trkpt lat="45.76716" lon="2.95791">
        <ele>1134.9777806641</ele>
        <time>2018-07-07T07:57:06Z</time>
      </trkpt>
      <trkpt lat="45.76716" lon="2.95797">
        <ele>1135.7749887376</ele>
        <time>2018-07-07T07:57:25Z</time>
      </trkpt>
      <trkpt lat="45.76716" lon="2.95798">
        <ele>1137.1526430621</ele>
        <time>2018-07-07T07:57:44Z</time>
      </trkpt>
      <trkpt lat="45.76724" lon="2.95811">
        <ele>1141.5091368389</ele>
        <time>2018-07-07T07:58:03Z</time>
      </trkpt>
      <trkpt lat="45.76725" lon="2.95811">
        <ele>1142.1187238641</ele>
        <time>2018-07-07T07:58:26Z</time>
      </trkpt>
      <trkpt lat="45.76732" lon="2.95813">
        <ele>1145.3928405095</ele>
        <time>2018-07-07T07:58:45Z</time>
      </trkpt>
      <trkpt lat="45.76734" lon="2.95813">
        <ele>1148.3185085761</ele>
        <time>2018-07-07T07:59:04Z</time>
      </trkpt>
      <trkpt lat="45.76751" lon="2.95807">
        <ele>1151.4077036219</ele>
        <time>2018-07-07T07:59:24Z</time>
      </trkpt>
      <trkpt lat="45.7677" lon="2.95796">
        <ele>1153.8989108062</ele>
        <time>2018-07-07T07:59:43Z</time>
      </trkpt>
      <trkpt lat="45.76772" lon="2.9582">
        <ele>1156.003974815</ele>
        <time>2018-07-07T08:00:02Z</time>
      </trkpt>
      <trkpt lat="45.7677" lon="2.95843">
        <ele>1157.6628943388</ele>
        <time>2018-07-07T08:00:21Z</time>
      </trkpt>
      <trkpt lat="45.76767" lon="2.95867">
        <ele>1158.9963138562</ele>
        <time>2018-07-07T08:00:41Z</time>
      </trkpt>
      <trkpt lat="45.7676" lon="2.95888">
        <ele>1159.9860926088</ele>
        <time>2018-07-07T08:01:01Z</time>
      </trkpt>
      <trkpt lat="45.76751" lon="2.95913">
        <ele>1160.9372787318</ele>
        <time>2018-07-07T08:01:20Z</time>
      </trkpt>
      <trkpt lat="45.76746" lon="2.95939">
        <ele>1162.0167507825</ele>
        <time>2018-07-07T08:01:39Z</time>
      </trkpt>
      <trkpt lat="45.76742" lon="2.95963">
        <ele>1163.2216857436</ele>
        <time>2018-07-07T08:01:58Z</time>
      </trkpt>
      <trkpt lat="45.76742" lon="2.95987">
        <ele>1164.5814241386</ele>
        <time>2018-07-07T08:02:18Z</time>
      </trkpt>
      <trkpt lat="45.76735" lon="2.96014">
        <ele>1165.8098670741</ele>
        <time>2018-07-07T08:02:38Z</time>
      </trkpt>
      <trkpt lat="45.76729" lon="2.96043">
        <ele>1169.1863255409</ele>
        <time>2018-07-07T08:02:57Z</time>
      </trkpt>
      <trkpt lat="45.76743" lon="2.96033">
        <ele>1175.5737606411</ele>
        <time>2018-07-07T08:03:16Z</time>
      </trkpt>
      <trkpt lat="45.76758" lon="2.96009">
        <ele>1181.8235033848</ele>
        <time>2018-07-07T08:03:35Z</time>
      </trkpt>
      <trkpt lat="45.76776" lon="2.95983">
        <ele>1187.5967903865</ele>
        <time>2018-07-07T08:03:54Z</time>
      </trkpt>
      <trkpt lat="45.76794" lon="2.95963">
        <ele>1192.4171037042</ele>
        <time>2018-07-07T08:04:13Z</time>
      </trkpt>
      <trkpt lat="45.7679" lon="2.95981">
        <ele>1196.4502540584</ele>
        <time>2018-07-07T08:04:33Z</time>
      </trkpt>
      <trkpt lat="45.76783" lon="2.96005">
        <ele>1199.3156950242</ele>
        <time>2018-07-07T08:04:52Z</time>
      </trkpt>
      <trkpt lat="45.76777" lon="2.96039">
        <ele>1202.2529917354</ele>
        <time>2018-07-07T08:05:12Z</time>
      </trkpt>
      <trkpt lat="45.76784" lon="2.96056">
        <ele>1206.9121560306</ele>
        <time>2018-07-07T08:05:32Z</time>
      </trkpt>
      <trkpt lat="45.76791" lon="2.96022">
        <ele>1212.2673106903</ele>
        <time>2018-07-07T08:05:51Z</time>
      </trkpt>
      <trkpt lat="45.76791" lon="2.96016">
        <ele>1215.0837868865</ele>
        <time>2018-07-07T08:06:11Z</time>
      </trkpt>
      <trkpt lat="45.76788" lon="2.96015">
        <ele>1218.3498337047</ele>
        <time>2018-07-07T08:06:30Z</time>
      </trkpt>
      <trkpt lat="45.76789" lon="2.96018">
        <ele>1221.4432204983</ele>
        <time>2018-07-07T08:06:49Z</time>
      </trkpt>
      <trkpt lat="45.76789" lon="2.96019">
        <ele>1223.7217862608</ele>
        <time>2018-07-07T08:07:29Z</time>
      </trkpt>
      <trkpt lat="45.76792" lon="2.9602">
        <ele>1226.608033324</ele>
        <time>2018-07-07T08:07:49Z</time>
      </trkpt>
      <trkpt lat="45.76791" lon="2.96021">
        <ele>1227.5615057354</ele>
        <time>2018-07-07T08:08:13Z</time>
      </trkpt>
      <trkpt lat="45.76792" lon="2.96022">
        <ele>1228.9765316838</ele>
        <time>2018-07-07T08:08:56Z</time>
      </trkpt>
      <trkpt lat="45.76791" lon="2.96024">
        <ele>1229.9847814779</ele>
        <time>2018-07-07T08:09:15Z</time>
      </trkpt>
      <trkpt lat="45.76792" lon="2.96025">
        <ele>1232.2352341497</ele>
        <time>2018-07-07T08:09:55Z</time>
      </trkpt>
      <trkpt lat="45.76792" lon="2.96026">
        <ele>1233.7189409598</ele>
        <time>2018-07-07T08:10:45Z</time>
      </trkpt>
      <trkpt lat="45.7679" lon="2.96029">
        <ele>1234.4658798043</ele>
        <time>2018-07-07T08:11:05Z</time>
      </trkpt>
      <trkpt lat="45.76791" lon="2.96028">
        <ele>1235.0606911256</ele>
        <time>2018-07-07T08:11:29Z</time>
      </trkpt>
      <trkpt lat="45.7679" lon="2.96029">
        <ele>1237.7910964479</ele>
        <time>2018-07-07T08:12:33Z</time>
      </trkpt>
      <trkpt lat="45.7679" lon="2.9603">
        <ele>1238.8270118041</ele>
        <time>2018-07-07T08:13:01Z</time>
      </trkpt>
      <trkpt lat="45.7679" lon="2.96031">
        <ele>1241.1588668567</ele>
        <time>2018-07-07T08:14:21Z</time>
      </trkpt>
      <trkpt lat="45.76789" lon="2.96031">
        <ele>1242.9921938471</ele>
        <time>2018-07-07T08:15:15Z</time>
      </trkpt>
      <trkpt lat="45.76789" lon="2.9603">
        <ele>1244.2973646849</ele>
        <time>2018-07-07T08:16:05Z</time>
      </trkpt>
      <trkpt lat="45.7679" lon="2.96029">
        <ele>1244.7077060763</ele>
        <time>2018-07-07T08:16:26Z</time>
      </trkpt>
      <trkpt lat="45.76801" lon="2.96013">
        <ele>1247.6242096596</ele>
        <time>2018-07-07T08:16:44Z</time>
      </trkpt>
      <trkpt lat="45.76816" lon="2.95993">
        <ele>1249.8282913032</ele>
        <time>2018-07-07T08:17:04Z</time>
      </trkpt>
      <trkpt lat="45.76836" lon="2.95978">
        <ele>1251.3514471369</ele>
        <time>2018-07-07T08:17:24Z</time>
      </trkpt>
      <trkpt lat="45.76856" lon="2.9597">
        <ele>1252.3411805522</ele>
        <time>2018-07-07T08:17:43Z</time>
      </trkpt>
      <trkpt lat="45.76875" lon="2.95956">
        <ele>1253.0437871763</ele>
        <time>2018-07-07T08:18:02Z</time>
      </trkpt>
      <trkpt lat="45.76893" lon="2.9595">
        <ele>1253.5886227442</ele>
        <time>2018-07-07T08:18:22Z</time>
      </trkpt>
      <trkpt lat="45.76891" lon="2.95955">
        <ele>1254.6682464071</ele>
        <time>2018-07-07T08:18:41Z</time>
      </trkpt>
      <trkpt lat="45.76873" lon="2.95973">
        <ele>1256.6182518509</ele>
        <time>2018-07-07T08:19:01Z</time>
      </trkpt>
      <trkpt lat="45.76874" lon="2.95993">
        <ele>1259.120246958</ele>
        <time>2018-07-07T08:19:20Z</time>
      </trkpt>
      <trkpt lat="45.76895" lon="2.95989">
        <ele>1261.3585262457</ele>
        <time>2018-07-07T08:19:40Z</time>
      </trkpt>
      <trkpt lat="45.76913" lon="2.95977">
        <ele>1263.3049704946</ele>
        <time>2018-07-07T08:19:59Z</time>
      </trkpt>
      <trkpt lat="45.76931" lon="2.95964">
        <ele>1265.3534786264</ele>
        <time>2018-07-07T08:20:18Z</time>
      </trkpt>
      <trkpt lat="45.76952" lon="2.95946">
        <ele>1267.9250819667</ele>
        <time>2018-07-07T08:20:38Z</time>
      </trkpt>
      <trkpt lat="45.7695" lon="2.95965">
        <ele>1271.5970372423</ele>
        <time>2018-07-07T08:20:57Z</time>
      </trkpt>
      <trkpt lat="45.76933" lon="2.95991">
        <ele>1277.5263659609</ele>
        <time>2018-07-07T08:21:17Z</time>
      </trkpt>
      <trkpt lat="45.76929" lon="2.9601">
        <ele>1283.7481550007</ele>
        <time>2018-07-07T08:21:36Z</time>
      </trkpt>
      <trkpt lat="45.76948" lon="2.95999">
        <ele>1288.8145556273</ele>
        <time>2018-07-07T08:21:56Z</time>
      </trkpt>
      <trkpt lat="45.76947" lon="2.96018">
        <ele>1293.261008186</ele>
        <time>2018-07-07T08:22:16Z</time>
      </trkpt>
      <trkpt lat="45.76936" lon="2.96031">
        <ele>1296.9192844767</ele>
        <time>2018-07-07T08:22:35Z</time>
      </trkpt>
      <trkpt lat="45.7695" lon="2.96044">
        <ele>1300.1551129961</ele>
        <time>2018-07-07T08:22:54Z</time>
      </trkpt>
      <trkpt lat="45.76964" lon="2.96024">
        <ele>1303.1948248481</ele>
        <time>2018-07-07T08:23:14Z</time>
      </trkpt>
      <trkpt lat="45.76974" lon="2.96011">
        <ele>1307.166774618</ele>
        <time>2018-07-07T08:23:33Z</time>
      </trkpt>
      <trkpt lat="45.76975" lon="2.96023">
        <ele>1311.8221367635</ele>
        <time>2018-07-07T08:23:53Z</time>
      </trkpt>
      <trkpt lat="45.76976" lon="2.96035">
        <ele>1316.4119921733</ele>
        <time>2018-07-07T08:24:13Z</time>
      </trkpt>
      <trkpt lat="45.76971" lon="2.96047">
        <ele>1321.5655955374</ele>
        <time>2018-07-07T08:24:32Z</time>
      </trkpt>
      <trkpt lat="45.76955" lon="2.96064">
        <ele>1327.0915046689</ele>
        <time>2018-07-07T08:24:51Z</time>
      </trkpt>
      <trkpt lat="45.76942" lon="2.96078">
        <ele>1332.2880988462</ele>
        <time>2018-07-07T08:25:11Z</time>
      </trkpt>
      <trkpt lat="45.76929" lon="2.96078">
        <ele>1336.9771567152</ele>
        <time>2018-07-07T08:25:31Z</time>
      </trkpt>
      <trkpt lat="45.76928" lon="2.96078">
        <ele>1338.7921999792</ele>
        <time>2018-07-07T08:25:54Z</time>
      </trkpt>
      <trkpt lat="45.76928" lon="2.96079">
        <ele>1339.992028831</ele>
        <time>2018-07-07T08:26:14Z</time>
      </trkpt>
      <trkpt lat="45.76923" lon="2.96107">
        <ele>1344.4192458121</ele>
        <time>2018-07-07T08:26:33Z</time>
      </trkpt>
      <trkpt lat="45.76923" lon="2.96111">
        <ele>1345.7336447721</ele>
        <time>2018-07-07T08:26:53Z</time>
      </trkpt>
      <trkpt lat="45.76922" lon="2.96112">
        <ele>1347.2276852248</ele>
        <time>2018-07-07T08:27:40Z</time>
      </trkpt>
      <trkpt lat="45.76942" lon="2.96119">
        <ele>1351.359280365</ele>
        <time>2018-07-07T08:28:00Z</time>
      </trkpt>
      <trkpt lat="45.76963" lon="2.96116">
        <ele>1354.3905111022</ele>
        <time>2018-07-07T08:28:19Z</time>
      </trkpt>
      <trkpt lat="45.76981" lon="2.96106">
        <ele>1357.4659802041</ele>
        <time>2018-07-07T08:28:39Z</time>
      </trkpt>
      <trkpt lat="45.76994" lon="2.96096">
        <ele>1360.1994075053</ele>
        <time>2018-07-07T08:28:58Z</time>
      </trkpt>
      <trkpt lat="45.77003" lon="2.96091">
        <ele>1362.5798964148</ele>
        <time>2018-07-07T08:29:17Z</time>
      </trkpt>
      <trkpt lat="45.7701" lon="2.96105">
        <ele>1364.1835092286</ele>
        <time>2018-07-07T08:29:37Z</time>
      </trkpt>
      <trkpt lat="45.77021" lon="2.96125">
        <ele>1366.1811427772</ele>
        <time>2018-07-07T08:29:56Z</time>
      </trkpt>
      <trkpt lat="45.77031" lon="2.96146">
        <ele>1368.1111123501</ele>
        <time>2018-07-07T08:30:16Z</time>
      </trkpt>
      <trkpt lat="45.77039" lon="2.96165">
        <ele>1370.0763669486</ele>
        <time>2018-07-07T08:30:35Z</time>
      </trkpt>
      <trkpt lat="45.77054" lon="2.96181">
        <ele>1372.2928796558</ele>
        <time>2018-07-07T08:30:55Z</time>
      </trkpt>
      <trkpt lat="45.77063" lon="2.96195">
        <ele>1374.5444217968</ele>
        <time>2018-07-07T08:31:15Z</time>
      </trkpt>
      <trkpt lat="45.7707" lon="2.96204">
        <ele>1376.8373107327</ele>
        <time>2018-07-07T08:31:34Z</time>
      </trkpt>
      <trkpt lat="45.77077" lon="2.96209">
        <ele>1378.3522934275</ele>
        <time>2018-07-07T08:31:53Z</time>
      </trkpt>
      <trkpt lat="45.77074" lon="2.96206">
        <ele>1379.549429508</ele>
        <time>2018-07-07T08:32:13Z</time>
      </trkpt>
      <trkpt lat="45.77074" lon="2.96207">
        <ele>1381.2440275655</ele>
        <time>2018-07-07T08:33:00Z</time>
      </trkpt>
      <trkpt lat="45.77076" lon="2.96228">
        <ele>1384.9422398957</ele>
        <time>2018-07-07T08:33:20Z</time>
      </trkpt>
      <trkpt lat="45.77078" lon="2.96236">
        <ele>1386.9994821843</ele>
        <time>2018-07-07T08:33:40Z</time>
      </trkpt>
      <trkpt lat="45.77061" lon="2.96237">
        <ele>1389.2298051549</ele>
        <time>2018-07-07T08:34:00Z</time>
      </trkpt>
      <trkpt lat="45.77044" lon="2.96238">
        <ele>1391.6762574412</ele>
        <time>2018-07-07T08:34:20Z</time>
      </trkpt>
      <trkpt lat="45.77033" lon="2.96239">
        <ele>1394.0538016142</ele>
        <time>2018-07-07T08:34:39Z</time>
      </trkpt>
      <trkpt lat="45.77021" lon="2.96228">
        <ele>1396.4642615559</ele>
        <time>2018-07-07T08:34:58Z</time>
      </trkpt>
      <trkpt lat="45.7702" lon="2.96228">
        <ele>1396.9455078515</ele>
        <time>2018-07-07T08:35:17Z</time>
      </trkpt>
      <trkpt lat="45.7702" lon="2.96229">
        <ele>1398.7562136324</ele>
        <time>2018-07-07T08:35:39Z</time>
      </trkpt>
      <trkpt lat="45.77026" lon="2.96215">
        <ele>1401.005464959</ele>
        <time>2018-07-07T08:35:59Z</time>
      </trkpt>
      <trkpt lat="45.77025" lon="2.96216">
        <ele>1402.1943096107</ele>
        <time>2018-07-07T08:36:19Z</time>
      </trkpt>
      <trkpt lat="45.77033" lon="2.96234">
        <ele>1403.7630786639</ele>
        <time>2018-07-07T08:36:38Z</time>
      </trkpt>
      <trkpt lat="45.7704" lon="2.96252">
        <ele>1405.0142425763</ele>
        <time>2018-07-07T08:36:57Z</time>
      </trkpt>
      <trkpt lat="45.77048" lon="2.96254">
        <ele>1405.8110063682</ele>
        <time>2018-07-07T08:37:17Z</time>
      </trkpt>
      <trkpt lat="45.77064" lon="2.96253">
        <ele>1406.874775766</ele>
        <time>2018-07-07T08:37:36Z</time>
      </trkpt>
      <trkpt lat="45.77082" lon="2.96248">
        <ele>1408.208654935</ele>
        <time>2018-07-07T08:37:56Z</time>
      </trkpt>
      <trkpt lat="45.77085" lon="2.96231">
        <ele>1409.3434946813</ele>
        <time>2018-07-07T08:38:15Z</time>
      </trkpt>
      <trkpt lat="45.77083" lon="2.96211">
        <ele>1410.2785336301</ele>
        <time>2018-07-07T08:38:35Z</time>
      </trkpt>
      <trkpt lat="45.77082" lon="2.96204">
        <ele>1410.7219640094</ele>
        <time>2018-07-07T08:38:54Z</time>
      </trkpt>
      <trkpt lat="45.77079" lon="2.96196">
        <ele>1411.2852796194</ele>
        <time>2018-07-07T08:39:13Z</time>
      </trkpt>
      <trkpt lat="45.77078" lon="2.96195">
        <ele>1411.6060480941</ele>
        <time>2018-07-07T08:39:33Z</time>
      </trkpt>
      <trkpt lat="45.77077" lon="2.96195">
        <ele>1411.769196578</ele>
        <time>2018-07-07T08:40:03Z</time>
      </trkpt>
      <trkpt lat="45.77076" lon="2.96199">
        <ele>1411.8876794859</ele>
        <time>2018-07-07T08:40:23Z</time>
      </trkpt>
      <trkpt lat="45.77076" lon="2.96197">
        <ele>1412.1494024555</ele>
        <time>2018-07-07T08:41:16Z</time>
      </trkpt>
      <trkpt lat="45.77077" lon="2.96199">
        <ele>1412.3073153007</ele>
        <time>2018-07-07T08:41:35Z</time>
      </trkpt>
      <trkpt lat="45.77077" lon="2.96198">
        <ele>1412.5611168271</ele>
        <time>2018-07-07T08:42:04Z</time>
      </trkpt>
      <trkpt lat="45.77078" lon="2.96197">
        <ele>1412.8052046036</ele>
        <time>2018-07-07T08:42:24Z</time>
      </trkpt>
      <trkpt lat="45.77078" lon="2.96195">
        <ele>1413.060361793</ele>
        <time>2018-07-07T08:42:43Z</time>
      </trkpt>
      <trkpt lat="45.77079" lon="2.96195">
        <ele>1414.3305846995</ele>
        <time>2018-07-07T08:44:05Z</time>
      </trkpt>
      <trkpt lat="45.77079" lon="2.96197">
        <ele>1414.6495248731</ele>
        <time>2018-07-07T08:44:24Z</time>
      </trkpt>
      <trkpt lat="45.77078" lon="2.96197">
        <ele>1414.8840674627</ele>
        <time>2018-07-07T08:44:43Z</time>
      </trkpt>
      <trkpt lat="45.77077" lon="2.96197">
        <ele>1415.2989137445</ele>
        <time>2018-07-07T08:45:08Z</time>
      </trkpt>
      <trkpt lat="45.77078" lon="2.96196">
        <ele>1415.8326478009</ele>
        <time>2018-07-07T08:45:39Z</time>
      </trkpt>
      <trkpt lat="45.77077" lon="2.96196">
        <ele>1416.963429317</ele>
        <time>2018-07-07T08:46:25Z</time>
      </trkpt>
      <trkpt lat="45.77076" lon="2.96197">
        <ele>1417.4274337585</ele>
        <time>2018-07-07T08:46:56Z</time>
      </trkpt>
      <trkpt lat="45.77076" lon="2.96197">
        <ele>1417.7749599528</ele>
        <time>2018-07-07T08:47:26Z</time>
      </trkpt>
      <trkpt lat="45.77076" lon="2.96206">
        <ele>1418.6855479065</ele>
        <time>2018-07-07T08:47:45Z</time>
      </trkpt>
      <trkpt lat="45.77072" lon="2.96206">
        <ele>1419.1348830519</ele>
        <time>2018-07-07T08:48:05Z</time>
      </trkpt>
      <trkpt lat="45.77066" lon="2.962">
        <ele>1419.4802466639</ele>
        <time>2018-07-07T08:48:25Z</time>
      </trkpt>
      <trkpt lat="45.77069" lon="2.9621">
        <ele>1419.6399416831</ele>
        <time>2018-07-07T08:48:44Z</time>
      </trkpt>
      <trkpt lat="45.77072" lon="2.96204">
        <ele>1419.7160075059</ele>
        <time>2018-07-07T08:49:03Z</time>
      </trkpt>
      <trkpt lat="45.77074" lon="2.962">
        <ele>1419.8449614411</ele>
        <time>2018-07-07T08:49:22Z</time>
      </trkpt>
      <trkpt lat="45.77072" lon="2.962">
        <ele>1420.0164582313</ele>
        <time>2018-07-07T08:49:42Z</time>
      </trkpt>
      <trkpt lat="45.77072" lon="2.96198">
        <ele>1420.1142033283</ele>
        <time>2018-07-07T08:50:01Z</time>
      </trkpt>
      <trkpt lat="45.77071" lon="2.96199">
        <ele>1420.1561290007</ele>
        <time>2018-07-07T08:50:20Z</time>
      </trkpt>
      <trkpt lat="45.77075" lon="2.96199">
        <ele>1420.2678086338</ele>
        <time>2018-07-07T08:50:39Z</time>
      </trkpt>
      <trkpt lat="45.77077" lon="2.96198">
        <ele>1420.3691557887</ele>
        <time>2018-07-07T08:50:58Z</time>
      </trkpt>
      <trkpt lat="45.77079" lon="2.96197">
        <ele>1420.450658489</ele>
        <time>2018-07-07T08:51:17Z</time>
      </trkpt>
      <trkpt lat="45.77081" lon="2.96199">
        <ele>1420.4645998218</ele>
        <time>2018-07-07T08:51:37Z</time>
      </trkpt>
      <trkpt lat="45.77082" lon="2.96195">
        <ele>1420.5737098704</ele>
        <time>2018-07-07T08:51:56Z</time>
      </trkpt>
      <trkpt lat="45.77081" lon="2.96194">
        <ele>1420.6273162257</ele>
        <time>2018-07-07T08:52:15Z</time>
      </trkpt>
      <trkpt lat="45.77081" lon="2.96198">
        <ele>1420.696473698</ele>
        <time>2018-07-07T08:52:35Z</time>
      </trkpt>
      <trkpt lat="45.77082" lon="2.96198">
        <ele>1420.7341850578</ele>
        <time>2018-07-07T08:53:17Z</time>
      </trkpt>
      <trkpt lat="45.77082" lon="2.96198">
        <ele>1420.7562393848</ele>
        <time>2018-07-07T08:53:52Z</time>
      </trkpt>
      <trkpt lat="45.77082" lon="2.962">
        <ele>1420.7643846943</ele>
        <time>2018-07-07T08:54:32Z</time>
      </trkpt>
      <trkpt lat="45.77082" lon="2.962">
        <ele>1420.8007662382</ele>
        <time>2018-07-07T08:55:03Z</time>
      </trkpt>
      <trkpt lat="45.77081" lon="2.96198">
        <ele>1420.8163359382</ele>
        <time>2018-07-07T08:55:22Z</time>
      </trkpt>
      <trkpt lat="45.77081" lon="2.96199">
        <ele>1420.8258890222</ele>
        <time>2018-07-07T08:55:44Z</time>
      </trkpt>
      <trkpt lat="45.77082" lon="2.96201">
        <ele>1420.8367392728</ele>
        <time>2018-07-07T08:56:04Z</time>
      </trkpt>
      <trkpt lat="45.77081" lon="2.96199">
        <ele>1420.854843899</ele>
        <time>2018-07-07T08:56:23Z</time>
      </trkpt>
      <trkpt lat="45.77079" lon="2.96196">
        <ele>1420.9176923906</ele>
        <time>2018-07-07T08:56:42Z</time>
      </trkpt>
      <trkpt lat="45.7708" lon="2.96197">
        <ele>1420.9333142638</ele>
        <time>2018-07-07T08:57:03Z</time>
      </trkpt>
      <trkpt lat="45.7708" lon="2.962">
        <ele>1420.9734167364</ele>
        <time>2018-07-07T08:57:23Z</time>
      </trkpt>
      <trkpt lat="45.77081" lon="2.96201">
        <ele>1420.9893443755</ele>
        <time>2018-07-07T08:57:47Z</time>
      </trkpt>
      <trkpt lat="45.77082" lon="2.96223">
        <ele>1421.0368941606</ele>
        <time>2018-07-07T08:58:06Z</time>
      </trkpt>
      <trkpt lat="45.77078" lon="2.96252">
        <ele>1421.0432217156</ele>
        <time>2018-07-07T08:58:26Z</time>
      </trkpt>
      <trkpt lat="45.77074" lon="2.96275">
        <ele>1421.042854936</ele>
        <time>2018-07-07T08:58:45Z</time>
      </trkpt>
      <trkpt lat="45.77071" lon="2.96295">
        <ele>1421.0175251287</ele>
        <time>2018-07-07T08:59:04Z</time>
      </trkpt>
      <trkpt lat="45.77076" lon="2.96316">
        <ele>1420.9653459215</ele>
        <time>2018-07-07T08:59:24Z</time>
      </trkpt>
      <trkpt lat="45.77077" lon="2.96334">
        <ele>1420.9259965594</ele>
        <time>2018-07-07T08:59:43Z</time>
      </trkpt>
      <trkpt lat="45.77074" lon="2.9634">
        <ele>1420.9350850503</ele>
        <time>2018-07-07T09:00:03Z</time>
      </trkpt>
      <trkpt lat="45.77074" lon="2.96331">
        <ele>1420.9686187695</ele>
        <time>2018-07-07T09:00:22Z</time>
      </trkpt>
      <trkpt lat="45.77088" lon="2.96328">
        <ele>1420.9781910924</ele>
        <time>2018-07-07T09:00:41Z</time>
      </trkpt>
      <trkpt lat="45.77089" lon="2.96333">
        <ele>1420.9872145479</ele>
        <time>2018-07-07T09:01:01Z</time>
      </trkpt>
      <trkpt lat="45.7709" lon="2.96339">
        <ele>1420.992810885</ele>
        <time>2018-07-07T09:01:20Z</time>
      </trkpt>
      <trkpt lat="45.77095" lon="2.96354">
        <ele>1420.9919467705</ele>
        <time>2018-07-07T09:01:39Z</time>
      </trkpt>
      <trkpt lat="45.77103" lon="2.96369">
        <ele>1421.0187622405</ele>
        <time>2018-07-07T09:01:59Z</time>
      </trkpt>
      <trkpt lat="45.77108" lon="2.96379">
        <ele>1421.1327311864</ele>
        <time>2018-07-07T09:02:19Z</time>
      </trkpt>
      <trkpt lat="45.77114" lon="2.96403">
        <ele>1421.2788300544</ele>
        <time>2018-07-07T09:02:39Z</time>
      </trkpt>
      <trkpt lat="45.77126" lon="2.96418">
        <ele>1421.4186468059</ele>
        <time>2018-07-07T09:02:58Z</time>
      </trkpt>
      <trkpt lat="45.77133" lon="2.96439">
        <ele>1421.5688096754</ele>
        <time>2018-07-07T09:03:17Z</time>
      </trkpt>
      <trkpt lat="45.77134" lon="2.96463">
        <ele>1421.7273160294</ele>
        <time>2018-07-07T09:03:36Z</time>
      </trkpt>
      <trkpt lat="45.77135" lon="2.96484">
        <ele>1421.8633174526</ele>
        <time>2018-07-07T09:03:55Z</time>
      </trkpt>
      <trkpt lat="45.77136" lon="2.96486">
        <ele>1421.9031174127</ele>
        <time>2018-07-07T09:04:15Z</time>
      </trkpt>
      <trkpt lat="45.77136" lon="2.96488">
        <ele>1421.9852158663</ele>
        <time>2018-07-07T09:04:46Z</time>
      </trkpt>
      <trkpt lat="45.77137" lon="2.96489">
        <ele>1422.0566890151</ele>
        <time>2018-07-07T09:05:06Z</time>
      </trkpt>
      <trkpt lat="45.7714" lon="2.96497">
        <ele>1422.4548015198</ele>
        <time>2018-07-07T09:05:25Z</time>
      </trkpt>
      <trkpt lat="45.77166" lon="2.96505">
        <ele>1423.1399790494</ele>
        <time>2018-07-07T09:05:45Z</time>
      </trkpt>
      <trkpt lat="45.77188" lon="2.96509">
        <ele>1423.7010423774</ele>
        <time>2018-07-07T09:06:04Z</time>
      </trkpt>
      <trkpt lat="45.77213" lon="2.96517">
        <ele>1424.3367283614</ele>
        <time>2018-07-07T09:06:24Z</time>
      </trkpt>
      <trkpt lat="45.7723" lon="2.96519">
        <ele>1425.8668380396</ele>
        <time>2018-07-07T09:06:43Z</time>
      </trkpt>
      <trkpt lat="45.77234" lon="2.96521">
        <ele>1426.8441320232</ele>
        <time>2018-07-07T09:07:02Z</time>
      </trkpt>
      <trkpt lat="45.77235" lon="2.96522">
        <ele>1428.1573169718</ele>
        <time>2018-07-07T09:07:22Z</time>
      </trkpt>
      <trkpt lat="45.7724" lon="2.96524">
        <ele>1430.1763031654</ele>
        <time>2018-07-07T09:07:41Z</time>
      </trkpt>
      <trkpt lat="45.7724" lon="2.96522">
        <ele>1431.2430207051</ele>
        <time>2018-07-07T09:08:01Z</time>
      </trkpt>
      <trkpt lat="45.7724" lon="2.96521">
        <ele>1432.3196060276</ele>
        <time>2018-07-07T09:08:21Z</time>
      </trkpt>
      <trkpt lat="45.77245" lon="2.96517">
        <ele>1435.4756938477</ele>
        <time>2018-07-07T09:08:40Z</time>
      </trkpt>
      <trkpt lat="45.77265" lon="2.9651">
        <ele>1439.041958042</ele>
        <time>2018-07-07T09:09:00Z</time>
      </trkpt>
      <trkpt lat="45.77285" lon="2.96496">
        <ele>1441.5573531391</ele>
        <time>2018-07-07T09:09:19Z</time>
      </trkpt>
      <trkpt lat="45.77295" lon="2.96479">
        <ele>1443.5911544846</ele>
        <time>2018-07-07T09:09:39Z</time>
      </trkpt>
      <trkpt lat="45.77304" lon="2.96465">
        <ele>1445.1024023404</ele>
        <time>2018-07-07T09:09:58Z</time>
      </trkpt>
      <trkpt lat="45.77308" lon="2.96451">
        <ele>1446.2400733218</ele>
        <time>2018-07-07T09:10:18Z</time>
      </trkpt>
      <trkpt lat="45.77308" lon="2.96423">
        <ele>1447.0286264556</ele>
        <time>2018-07-07T09:10:38Z</time>
      </trkpt>
      <trkpt lat="45.77306" lon="2.96402">
        <ele>1447.6027748484</ele>
        <time>2018-07-07T09:10:57Z</time>
      </trkpt>
      <trkpt lat="45.77308" lon="2.96391">
        <ele>1448.0280517434</ele>
        <time>2018-07-07T09:11:17Z</time>
      </trkpt>
      <trkpt lat="45.77308" lon="2.96379">
        <ele>1448.3366542421</ele>
        <time>2018-07-07T09:11:36Z</time>
      </trkpt>
      <trkpt lat="45.77306" lon="2.96376">
        <ele>1448.4424358858</ele>
        <time>2018-07-07T09:11:56Z</time>
      </trkpt>
      <trkpt lat="45.77304" lon="2.96363">
        <ele>1448.5745334352</ele>
        <time>2018-07-07T09:12:15Z</time>
      </trkpt>
      <trkpt lat="45.77299" lon="2.96348">
        <ele>1448.5828175459</ele>
        <time>2018-07-07T09:12:34Z</time>
      </trkpt>
      <trkpt lat="45.77304" lon="2.96337">
        <ele>1448.5362808507</ele>
        <time>2018-07-07T09:12:53Z</time>
      </trkpt>
      <trkpt lat="45.77308" lon="2.9631">
        <ele>1448.4214868848</ele>
        <time>2018-07-07T09:13:13Z</time>
      </trkpt>
      <trkpt lat="45.773" lon="2.9629">
        <ele>1448.236812508</ele>
        <time>2018-07-07T09:13:33Z</time>
      </trkpt>
      <trkpt lat="45.77294" lon="2.96278">
        <ele>1448.0106950225</ele>
        <time>2018-07-07T09:13:52Z</time>
      </trkpt>
      <trkpt lat="45.77293" lon="2.96278">
        <ele>1447.8687209656</ele>
        <time>2018-07-07T09:14:12Z</time>
      </trkpt>
      <trkpt lat="45.77279" lon="2.9626">
        <ele>1447.3954651323</ele>
        <time>2018-07-07T09:14:31Z</time>
      </trkpt>
      <trkpt lat="45.77262" lon="2.96243">
        <ele>1446.8889132325</ele>
        <time>2018-07-07T09:14:51Z</time>
      </trkpt>
      <trkpt lat="45.77246" lon="2.96226">
        <ele>1446.3190330695</ele>
        <time>2018-07-07T09:15:11Z</time>
      </trkpt>
      <trkpt lat="45.7723" lon="2.96215">
        <ele>1445.7576147975</ele>
        <time>2018-07-07T09:15:30Z</time>
      </trkpt>
      <trkpt lat="45.77213" lon="2.96202">
        <ele>1445.011692751</ele>
        <time>2018-07-07T09:15:49Z</time>
      </trkpt>
      <trkpt lat="45.77194" lon="2.96189">
        <ele>1444.1866472953</ele>
        <time>2018-07-07T09:16:08Z</time>
      </trkpt>
      <trkpt lat="45.77173" lon="2.96187">
        <ele>1443.3520098434</ele>
        <time>2018-07-07T09:16:27Z</time>
      </trkpt>
      <trkpt lat="45.77148" lon="2.96201">
        <ele>1442.4314165604</ele>
        <time>2018-07-07T09:16:47Z</time>
      </trkpt>
      <trkpt lat="45.77134" lon="2.96226">
        <ele>1441.5955493263</ele>
        <time>2018-07-07T09:17:06Z</time>
      </trkpt>
      <trkpt lat="45.77118" lon="2.9625">
        <ele>1440.7589759269</ele>
        <time>2018-07-07T09:17:26Z</time>
      </trkpt>
      <trkpt lat="45.77103" lon="2.96279">
        <ele>1440.0216697094</ele>
        <time>2018-07-07T09:17:46Z</time>
      </trkpt>
      <trkpt lat="45.77095" lon="2.96309">
        <ele>1439.4014161109</ele>
        <time>2018-07-07T09:18:05Z</time>
      </trkpt>
      <trkpt lat="45.77086" lon="2.96339">
        <ele>1438.8092406057</ele>
        <time>2018-07-07T09:18:25Z</time>
      </trkpt>
      <trkpt lat="45.77082" lon="2.96361">
        <ele>1438.2863339264</ele>
        <time>2018-07-07T09:18:44Z</time>
      </trkpt>
      <trkpt lat="45.77076" lon="2.96384">
        <ele>1437.6589039605</ele>
        <time>2018-07-07T09:19:03Z</time>
      </trkpt>
      <trkpt lat="45.7707" lon="2.96416">
        <ele>1436.9760042671</ele>
        <time>2018-07-07T09:19:22Z</time>
      </trkpt>
      <trkpt lat="45.77063" lon="2.96445">
        <ele>1436.4078892754</ele>
        <time>2018-07-07T09:19:41Z</time>
      </trkpt>
      <trkpt lat="45.7706" lon="2.96466">
        <ele>1435.9430803352</ele>
        <time>2018-07-07T09:20:00Z</time>
      </trkpt>
      <trkpt lat="45.77061" lon="2.96501">
        <ele>1435.4601877933</ele>
        <time>2018-07-07T09:20:20Z</time>
      </trkpt>
      <trkpt lat="45.77065" lon="2.96519">
        <ele>1435.0741015181</ele>
        <time>2018-07-07T09:20:39Z</time>
      </trkpt>
      <trkpt lat="45.77066" lon="2.96518">
        <ele>1434.8481369702</ele>
        <time>2018-07-07T09:20:59Z</time>
      </trkpt>
      <trkpt lat="45.77069" lon="2.96543">
        <ele>1434.4235333114</ele>
        <time>2018-07-07T09:21:18Z</time>
      </trkpt>
      <trkpt lat="45.7707" lon="2.9657">
        <ele>1433.9815678421</ele>
        <time>2018-07-07T09:21:37Z</time>
      </trkpt>
      <trkpt lat="45.77083" lon="2.96598">
        <ele>1433.4731017814</ele>
        <time>2018-07-07T09:21:57Z</time>
      </trkpt>
      <trkpt lat="45.77099" lon="2.96621">
        <ele>1432.9456107261</ele>
        <time>2018-07-07T09:22:16Z</time>
      </trkpt>
      <trkpt lat="45.77117" lon="2.96641">
        <ele>1432.3544064079</ele>
        <time>2018-07-07T09:22:36Z</time>
      </trkpt>
      <trkpt lat="45.77138" lon="2.96657">
        <ele>1431.7689158086</ele>
        <time>2018-07-07T09:22:55Z</time>
      </trkpt>
      <trkpt lat="45.77153" lon="2.96676">
        <ele>1431.1137108835</ele>
        <time>2018-07-07T09:23:15Z</time>
      </trkpt>
      <trkpt lat="45.77172" lon="2.9668">
        <ele>1430.4738113745</ele>
        <time>2018-07-07T09:23:34Z</time>
      </trkpt>
      <trkpt lat="45.77191" lon="2.96693">
        <ele>1429.6933026613</ele>
        <time>2018-07-07T09:23:54Z</time>
      </trkpt>
      <trkpt lat="45.77209" lon="2.96699">
        <ele>1428.9105405243</ele>
        <time>2018-07-07T09:24:13Z</time>
      </trkpt>
      <trkpt lat="45.77234" lon="2.96703">
        <ele>1428.0724623266</ele>
        <time>2018-07-07T09:24:32Z</time>
      </trkpt>
      <trkpt lat="45.77259" lon="2.96703">
        <ele>1426.5283192939</ele>
        <time>2018-07-07T09:24:52Z</time>
      </trkpt>
      <trkpt lat="45.77278" lon="2.96686">
        <ele>1424.5144770802</ele>
        <time>2018-07-07T09:25:11Z</time>
      </trkpt>
      <trkpt lat="45.77293" lon="2.96664">
        <ele>1421.8563389946</ele>
        <time>2018-07-07T09:25:30Z</time>
      </trkpt>
      <trkpt lat="45.77305" lon="2.96647">
        <ele>1418.9809880064</ele>
        <time>2018-07-07T09:25:50Z</time>
      </trkpt>
      <trkpt lat="45.7732" lon="2.96644">
        <ele>1416.8486186901</ele>
        <time>2018-07-07T09:26:09Z</time>
      </trkpt>
      <trkpt lat="45.77342" lon="2.96644">
        <ele>1413.6590324718</ele>
        <time>2018-07-07T09:26:28Z</time>
      </trkpt>
      <trkpt lat="45.77357" lon="2.96641">
        <ele>1410.3587919841</ele>
        <time>2018-07-07T09:26:47Z</time>
      </trkpt>
      <trkpt lat="45.77363" lon="2.96631">
        <ele>1408.004742466</ele>
        <time>2018-07-07T09:27:07Z</time>
      </trkpt>
      <trkpt lat="45.77371" lon="2.96635">
        <ele>1405.7891548192</ele>
        <time>2018-07-07T09:27:26Z</time>
      </trkpt>
      <trkpt lat="45.77368" lon="2.96647">
        <ele>1402.8733096204</ele>
        <time>2018-07-07T09:27:45Z</time>
      </trkpt>
      <trkpt lat="45.77367" lon="2.96652">
        <ele>1399.2711922707</ele>
        <time>2018-07-07T09:28:05Z</time>
      </trkpt>
      <trkpt lat="45.77371" lon="2.96645">
        <ele>1395.7936127998</ele>
        <time>2018-07-07T09:28:24Z</time>
      </trkpt>
      <trkpt lat="45.77381" lon="2.96633">
        <ele>1391.2324273087</ele>
        <time>2018-07-07T09:28:43Z</time>
      </trkpt>
      <trkpt lat="45.77396" lon="2.96618">
        <ele>1386.9098136277</ele>
        <time>2018-07-07T09:29:03Z</time>
      </trkpt>
      <trkpt lat="45.77407" lon="2.96609">
        <ele>1383.1599548521</ele>
        <time>2018-07-07T09:29:22Z</time>
      </trkpt>
      <trkpt lat="45.77416" lon="2.96608">
        <ele>1380.2780370236</ele>
        <time>2018-07-07T09:29:42Z</time>
      </trkpt>
      <trkpt lat="45.77432" lon="2.96607">
        <ele>1377.1482194114</ele>
        <time>2018-07-07T09:30:01Z</time>
      </trkpt>
      <trkpt lat="45.77441" lon="2.96601">
        <ele>1373.691762301</ele>
        <time>2018-07-07T09:30:21Z</time>
      </trkpt>
      <trkpt lat="45.77454" lon="2.96592">
        <ele>1370.6122651197</ele>
        <time>2018-07-07T09:30:40Z</time>
      </trkpt>
      <trkpt lat="45.77459" lon="2.96587">
        <ele>1368.2891735753</ele>
        <time>2018-07-07T09:30:59Z</time>
      </trkpt>
      <trkpt lat="45.77471" lon="2.96585">
        <ele>1365.615895612</ele>
        <time>2018-07-07T09:31:19Z</time>
      </trkpt>
      <trkpt lat="45.77478" lon="2.96572">
        <ele>1363.1686939965</ele>
        <time>2018-07-07T09:31:38Z</time>
      </trkpt>
      <trkpt lat="45.77483" lon="2.96548">
        <ele>1360.0476763386</ele>
        <time>2018-07-07T09:31:57Z</time>
      </trkpt>
      <trkpt lat="45.77491" lon="2.96536">
        <ele>1356.5578473318</ele>
        <time>2018-07-07T09:32:17Z</time>
      </trkpt>
      <trkpt lat="45.77493" lon="2.96529">
        <ele>1353.5317402193</ele>
        <time>2018-07-07T09:32:36Z</time>
      </trkpt>
      <trkpt lat="45.77498" lon="2.96524">
        <ele>1350.8161330078</ele>
        <time>2018-07-07T09:32:55Z</time>
      </trkpt>
      <trkpt lat="45.77509" lon="2.96508">
        <ele>1348.5125904237</ele>
        <time>2018-07-07T09:33:14Z</time>
      </trkpt>
      <trkpt lat="45.77514" lon="2.96486">
        <ele>1345.5974371914</ele>
        <time>2018-07-07T09:33:34Z</time>
      </trkpt>
      <trkpt lat="45.77524" lon="2.96484">
        <ele>1342.8559023269</ele>
        <time>2018-07-07T09:33:53Z</time>
      </trkpt>
      <trkpt lat="45.7753" lon="2.96469">
        <ele>1340.4045704025</ele>
        <time>2018-07-07T09:34:12Z</time>
      </trkpt>
      <trkpt lat="45.77533" lon="2.9645">
        <ele>1337.9204480475</ele>
        <time>2018-07-07T09:34:31Z</time>
      </trkpt>
      <trkpt lat="45.7754" lon="2.96434">
        <ele>1335.4328191642</ele>
        <time>2018-07-07T09:34:50Z</time>
      </trkpt>
      <trkpt lat="45.77559" lon="2.96442">
        <ele>1332.9097867832</ele>
        <time>2018-07-07T09:35:10Z</time>
      </trkpt>
      <trkpt lat="45.77572" lon="2.96468">
        <ele>1330.0285706317</ele>
        <time>2018-07-07T09:35:30Z</time>
      </trkpt>
      <trkpt lat="45.77579" lon="2.9649">
        <ele>1327.136245798</ele>
        <time>2018-07-07T09:35:50Z</time>
      </trkpt>
      <trkpt lat="45.77588" lon="2.965">
        <ele>1324.2518082966</ele>
        <time>2018-07-07T09:36:10Z</time>
      </trkpt>
      <trkpt lat="45.77591" lon="2.9647">
        <ele>1321.1431224199</ele>
        <time>2018-07-07T09:36:29Z</time>
      </trkpt>
      <trkpt lat="45.77595" lon="2.96448">
        <ele>1317.8252904242</ele>
        <time>2018-07-07T09:36:49Z</time>
      </trkpt>
      <trkpt lat="45.77602" lon="2.96437">
        <ele>1314.7681039108</ele>
        <time>2018-07-07T09:37:09Z</time>
      </trkpt>
      <trkpt lat="45.77613" lon="2.96425">
        <ele>1311.9785321478</ele>
        <time>2018-07-07T09:37:28Z</time>
      </trkpt>
      <trkpt lat="45.77623" lon="2.96407">
        <ele>1309.4470420947</ele>
        <time>2018-07-07T09:37:48Z</time>
      </trkpt>
      <trkpt lat="45.77631" lon="2.96418">
        <ele>1307.2820613038</ele>
        <time>2018-07-07T09:38:07Z</time>
      </trkpt>
      <trkpt lat="45.77642" lon="2.96442">
        <ele>1305.3684642291</ele>
        <time>2018-07-07T09:38:26Z</time>
      </trkpt>
      <trkpt lat="45.77646" lon="2.96459">
        <ele>1302.636203207</ele>
        <time>2018-07-07T09:38:45Z</time>
      </trkpt>
      <trkpt lat="45.77654" lon="2.96485">
        <ele>1299.8511965067</ele>
        <time>2018-07-07T09:39:05Z</time>
      </trkpt>
      <trkpt lat="45.7767" lon="2.96459">
        <ele>1296.8841083769</ele>
        <time>2018-07-07T09:39:25Z</time>
      </trkpt>
      <trkpt lat="45.77686" lon="2.96449">
        <ele>1293.2471114553</ele>
        <time>2018-07-07T09:39:44Z</time>
      </trkpt>
      <trkpt lat="45.77706" lon="2.96445">
        <ele>1289.016220669</ele>
        <time>2018-07-07T09:40:04Z</time>
      </trkpt>
      <trkpt lat="45.77721" lon="2.96439">
        <ele>1284.9170061238</ele>
        <time>2018-07-07T09:40:23Z</time>
      </trkpt>
      <trkpt lat="45.77737" lon="2.96432">
        <ele>1280.5668218089</ele>
        <time>2018-07-07T09:40:43Z</time>
      </trkpt>
      <trkpt lat="45.77757" lon="2.96427">
        <ele>1276.9471922488</ele>
        <time>2018-07-07T09:41:02Z</time>
      </trkpt>
      <trkpt lat="45.77776" lon="2.96424">
        <ele>1273.588776939</ele>
        <time>2018-07-07T09:41:21Z</time>
      </trkpt>
      <trkpt lat="45.77778" lon="2.96427">
        <ele>1272.9084397214</ele>
        <time>2018-07-07T09:41:40Z</time>
      </trkpt>
      <trkpt lat="45.77783" lon="2.96424">
        <ele>1270.4079001897</ele>
        <time>2018-07-07T09:42:00Z</time>
      </trkpt>
      <trkpt lat="45.77803" lon="2.96419">
        <ele>1267.1136171461</ele>
        <time>2018-07-07T09:42:19Z</time>
      </trkpt>
      <trkpt lat="45.77828" lon="2.96417">
        <ele>1264.2589213408</ele>
        <time>2018-07-07T09:42:38Z</time>
      </trkpt>
      <trkpt lat="45.77835" lon="2.96389">
        <ele>1261.9354967708</ele>
        <time>2018-07-07T09:42:57Z</time>
      </trkpt>
      <trkpt lat="45.77849" lon="2.96368">
        <ele>1259.8812336324</ele>
        <time>2018-07-07T09:43:16Z</time>
      </trkpt>
      <trkpt lat="45.77868" lon="2.96366">
        <ele>1258.0485883146</ele>
        <time>2018-07-07T09:43:35Z</time>
      </trkpt>
      <trkpt lat="45.77897" lon="2.96369">
        <ele>1256.1784459012</ele>
        <time>2018-07-07T09:43:55Z</time>
      </trkpt>
      <trkpt lat="45.77919" lon="2.96372">
        <ele>1254.5898706867</ele>
        <time>2018-07-07T09:44:14Z</time>
      </trkpt>
      <trkpt lat="45.77932" lon="2.96369">
        <ele>1253.311876608</ele>
        <time>2018-07-07T09:44:33Z</time>
      </trkpt>
      <trkpt lat="45.77958" lon="2.96385">
        <ele>1252.1860672485</ele>
        <time>2018-07-07T09:44:52Z</time>
      </trkpt>
      <trkpt lat="45.77979" lon="2.96408">
        <ele>1251.167357758</ele>
        <time>2018-07-07T09:45:12Z</time>
      </trkpt>
      <trkpt lat="45.77987" lon="2.96413">
        <ele>1250.348219775</ele>
        <time>2018-07-07T09:45:31Z</time>
      </trkpt>
      <trkpt lat="45.78003" lon="2.96412">
        <ele>1249.4792494772</ele>
        <time>2018-07-07T09:45:51Z</time>
      </trkpt>
      <trkpt lat="45.78014" lon="2.9643">
        <ele>1248.5923195464</ele>
        <time>2018-07-07T09:46:11Z</time>
      </trkpt>
      <trkpt lat="45.78029" lon="2.96444">
        <ele>1247.706640888</ele>
        <time>2018-07-07T09:46:30Z</time>
      </trkpt>
      <trkpt lat="45.78035" lon="2.96458">
        <ele>1246.6596167654</ele>
        <time>2018-07-07T09:46:50Z</time>
      </trkpt>
      <trkpt lat="45.7804" lon="2.96491">
        <ele>1245.5483808006</ele>
        <time>2018-07-07T09:47:09Z</time>
      </trkpt>
      <trkpt lat="45.78049" lon="2.96496">
        <ele>1243.9803012136</ele>
        <time>2018-07-07T09:47:29Z</time>
      </trkpt>
      <trkpt lat="45.7807" lon="2.96494">
        <ele>1242.3807644758</ele>
        <time>2018-07-07T09:47:49Z</time>
      </trkpt>
      <trkpt lat="45.78101" lon="2.96509">
        <ele>1240.7767756286</ele>
        <time>2018-07-07T09:48:09Z</time>
      </trkpt>
      <trkpt lat="45.78125" lon="2.96513">
        <ele>1239.1142798103</ele>
        <time>2018-07-07T09:48:28Z</time>
      </trkpt>
      <trkpt lat="45.78138" lon="2.96512">
        <ele>1237.3820376152</ele>
        <time>2018-07-07T09:48:47Z</time>
      </trkpt>
      <trkpt lat="45.78136" lon="2.96513">
        <ele>1236.1723249774</ele>
        <time>2018-07-07T09:49:07Z</time>
      </trkpt>
      <trkpt lat="45.78139" lon="2.96505">
        <ele>1234.3455560108</ele>
        <time>2018-07-07T09:49:27Z</time>
      </trkpt>
      <trkpt lat="45.78145" lon="2.96505">
        <ele>1232.7016519983</ele>
        <time>2018-07-07T09:49:46Z</time>
      </trkpt>
      <trkpt lat="45.7816" lon="2.96529">
        <ele>1230.4555848518</ele>
        <time>2018-07-07T09:50:05Z</time>
      </trkpt>
      <trkpt lat="45.78176" lon="2.96531">
        <ele>1226.2793993573</ele>
        <time>2018-07-07T09:50:25Z</time>
      </trkpt>
      <trkpt lat="45.78198" lon="2.9655">
        <ele>1224.0558851971</ele>
        <time>2018-07-07T09:50:45Z</time>
      </trkpt>
      <trkpt lat="45.78215" lon="2.96561">
        <ele>1221.773077578</ele>
        <time>2018-07-07T09:51:04Z</time>
      </trkpt>
      <trkpt lat="45.78231" lon="2.96558">
        <ele>1219.4861300134</ele>
        <time>2018-07-07T09:51:23Z</time>
      </trkpt>
      <trkpt lat="45.78242" lon="2.96558">
        <ele>1216.8804355607</ele>
        <time>2018-07-07T09:51:42Z</time>
      </trkpt>
      <trkpt lat="45.78251" lon="2.96535">
        <ele>1214.4269391003</ele>
        <time>2018-07-07T09:52:02Z</time>
      </trkpt>
      <trkpt lat="45.78264" lon="2.96531">
        <ele>1212.7599032366</ele>
        <time>2018-07-07T09:52:22Z</time>
      </trkpt>
      <trkpt lat="45.78267" lon="2.96534">
        <ele>1211.3229093073</ele>
        <time>2018-07-07T09:52:41Z</time>
      </trkpt>
      <trkpt lat="45.78268" lon="2.96534">
        <ele>1210.6537121535</ele>
        <time>2018-07-07T09:53:01Z</time>
      </trkpt>
      <trkpt lat="45.78272" lon="2.96536">
        <ele>1208.5104542189</ele>
        <time>2018-07-07T09:53:20Z</time>
      </trkpt>
      <trkpt lat="45.78286" lon="2.96533">
        <ele>1202.3302272637</ele>
        <time>2018-07-07T09:53:39Z</time>
      </trkpt>
      <trkpt lat="45.78298" lon="2.96531">
        <ele>1198.1280614082</ele>
        <time>2018-07-07T09:53:58Z</time>
      </trkpt>
      <trkpt lat="45.78336" lon="2.96545">
        <ele>1193.7055619481</ele>
        <time>2018-07-07T09:54:18Z</time>
      </trkpt>
      <trkpt lat="45.78363" lon="2.96563">
        <ele>1189.658823457</ele>
        <time>2018-07-07T09:54:37Z</time>
      </trkpt>
      <trkpt lat="45.7839" lon="2.96578">
        <ele>1185.7238407386</ele>
        <time>2018-07-07T09:54:57Z</time>
      </trkpt>
      <trkpt lat="45.784" lon="2.96584">
        <ele>1182.5365512765</ele>
        <time>2018-07-07T09:55:16Z</time>
      </trkpt>
      <trkpt lat="45.784" lon="2.96584">
        <ele>1181.2394137876</ele>
        <time>2018-07-07T09:55:36Z</time>
      </trkpt>
      <trkpt lat="45.78395" lon="2.96583">
        <ele>1178.9856175173</ele>
        <time>2018-07-07T09:55:56Z</time>
      </trkpt>
      <trkpt lat="45.78396" lon="2.96582">
        <ele>1178.0122447565</ele>
        <time>2018-07-07T09:56:15Z</time>
      </trkpt>
      <trkpt lat="45.78396" lon="2.96581">
        <ele>1176.4871129453</ele>
        <time>2018-07-07T09:57:09Z</time>
      </trkpt>
      <trkpt lat="45.78397" lon="2.9658">
        <ele>1175.2048093674</ele>
        <time>2018-07-07T09:57:35Z</time>
      </trkpt>
      <trkpt lat="45.78396" lon="2.96579">
        <ele>1172.7844396388</ele>
        <time>2018-07-07T09:57:54Z</time>
      </trkpt>
      <trkpt lat="45.7839" lon="2.96576">
        <ele>1169.8576373707</ele>
        <time>2018-07-07T09:58:13Z</time>
      </trkpt>
      <trkpt lat="45.78389" lon="2.96577">
        <ele>1168.9203798001</ele>
        <time>2018-07-07T09:58:32Z</time>
      </trkpt>
      <trkpt lat="45.78387" lon="2.96577">
        <ele>1167.0923921632</ele>
        <time>2018-07-07T09:58:52Z</time>
      </trkpt>
      <trkpt lat="45.7839" lon="2.96569">
        <ele>1163.6119343858</ele>
        <time>2018-07-07T09:59:12Z</time>
      </trkpt>
      <trkpt lat="45.78389" lon="2.96557">
        <ele>1161.4726328096</ele>
        <time>2018-07-07T09:59:31Z</time>
      </trkpt>
      <trkpt lat="45.7839" lon="2.96555">
        <ele>1160.335924778</ele>
        <time>2018-07-07T09:59:51Z</time>
      </trkpt>
      <trkpt lat="45.78384" lon="2.96526">
        <ele>1157.3398068898</ele>
        <time>2018-07-07T10:00:11Z</time>
      </trkpt>
      <trkpt lat="45.78384" lon="2.96492">
        <ele>1155.0964155784</ele>
        <time>2018-07-07T10:00:31Z</time>
      </trkpt>
      <trkpt lat="45.78378" lon="2.96459">
        <ele>1153.1764374494</ele>
        <time>2018-07-07T10:00:50Z</time>
      </trkpt>
      <trkpt lat="45.78375" lon="2.96454">
        <ele>1152.1395735663</ele>
        <time>2018-07-07T10:01:10Z</time>
      </trkpt>
      <trkpt lat="45.78373" lon="2.96437">
        <ele>1150.2037720794</ele>
        <time>2018-07-07T10:01:29Z</time>
      </trkpt>
      <trkpt lat="45.78373" lon="2.964">
        <ele>1147.7956260788</ele>
        <time>2018-07-07T10:01:49Z</time>
      </trkpt>
      <trkpt lat="45.78376" lon="2.96368">
        <ele>1145.6424986702</ele>
        <time>2018-07-07T10:02:08Z</time>
      </trkpt>
      <trkpt lat="45.7838" lon="2.96335">
        <ele>1143.747051516</ele>
        <time>2018-07-07T10:02:27Z</time>
      </trkpt>
      <trkpt lat="45.78385" lon="2.96303">
        <ele>1142.0077357154</ele>
        <time>2018-07-07T10:02:46Z</time>
      </trkpt>
      <trkpt lat="45.78395" lon="2.96275">
        <ele>1140.6256535917</ele>
        <time>2018-07-07T10:03:06Z</time>
      </trkpt>
      <trkpt lat="45.78405" lon="2.96251">
        <ele>1139.5124096419</ele>
        <time>2018-07-07T10:03:26Z</time>
      </trkpt>
      <trkpt lat="45.78424" lon="2.96231">
        <ele>1138.6421594462</ele>
        <time>2018-07-07T10:03:45Z</time>
      </trkpt>
      <trkpt lat="45.78448" lon="2.96213">
        <ele>1137.872837874</ele>
        <time>2018-07-07T10:04:05Z</time>
      </trkpt>
      <trkpt lat="45.7846" lon="2.96197">
        <ele>1137.2838711378</ele>
        <time>2018-07-07T10:04:24Z</time>
      </trkpt>
      <trkpt lat="45.78482" lon="2.9619">
        <ele>1136.771020367</ele>
        <time>2018-07-07T10:04:44Z</time>
      </trkpt>
      <trkpt lat="45.78494" lon="2.96175">
        <ele>1136.3139237987</ele>
        <time>2018-07-07T10:05:03Z</time>
      </trkpt>
      <trkpt lat="45.78506" lon="2.9615">
        <ele>1135.8396855008</ele>
        <time>2018-07-07T10:05:22Z</time>
      </trkpt>
      <trkpt lat="45.78495" lon="2.96135">
        <ele>1135.3935052092</ele>
        <time>2018-07-07T10:05:42Z</time>
      </trkpt>
      <trkpt lat="45.78473" lon="2.96114">
        <ele>1134.9267811901</ele>
        <time>2018-07-07T10:06:01Z</time>
      </trkpt>
      <trkpt lat="45.78452" lon="2.96105">
        <ele>1134.4457845767</ele>
        <time>2018-07-07T10:06:19Z</time>
      </trkpt>
      <trkpt lat="45.78431" lon="2.96104">
        <ele>1133.8106163491</ele>
        <time>2018-07-07T10:06:39Z</time>
      </trkpt>
      <trkpt lat="45.78418" lon="2.96108">
        <ele>1133.0645861363</ele>
        <time>2018-07-07T10:06:58Z</time>
      </trkpt>
      <trkpt lat="45.78395" lon="2.96116">
        <ele>1132.1478961359</ele>
        <time>2018-07-07T10:07:18Z</time>
      </trkpt>
      <trkpt lat="45.78373" lon="2.9612">
        <ele>1131.1383175207</ele>
        <time>2018-07-07T10:07:38Z</time>
      </trkpt>
      <trkpt lat="45.78354" lon="2.96123">
        <ele>1130.2362521384</ele>
        <time>2018-07-07T10:07:57Z</time>
      </trkpt>
      <trkpt lat="45.78333" lon="2.96115">
        <ele>1128.9678790726</ele>
        <time>2018-07-07T10:08:16Z</time>
      </trkpt>
      <trkpt lat="45.78314" lon="2.96103">
        <ele>1127.7269189548</ele>
        <time>2018-07-07T10:08:36Z</time>
      </trkpt>
      <trkpt lat="45.78303" lon="2.96086">
        <ele>1126.3600853189</ele>
        <time>2018-07-07T10:08:55Z</time>
      </trkpt>
      <trkpt lat="45.78287" lon="2.96056">
        <ele>1124.7074880701</ele>
        <time>2018-07-07T10:09:14Z</time>
      </trkpt>
      <trkpt lat="45.7828" lon="2.96033">
        <ele>1123.2048490222</ele>
        <time>2018-07-07T10:09:34Z</time>
      </trkpt>
      <trkpt lat="45.78273" lon="2.9601">
        <ele>1121.799095435</ele>
        <time>2018-07-07T10:09:54Z</time>
      </trkpt>
      <trkpt lat="45.78271" lon="2.96002">
        <ele>1120.4948633955</ele>
        <time>2018-07-07T10:10:13Z</time>
      </trkpt>
      <trkpt lat="45.78269" lon="2.95992">
        <ele>1119.1635648212</ele>
        <time>2018-07-07T10:10:33Z</time>
      </trkpt>
      <trkpt lat="45.78264" lon="2.95973">
        <ele>1117.8612564309</ele>
        <time>2018-07-07T10:10:52Z</time>
      </trkpt>
      <trkpt lat="45.78268" lon="2.95948">
        <ele>1116.430463666</ele>
        <time>2018-07-07T10:11:11Z</time>
      </trkpt>
      <trkpt lat="45.78229" lon="2.95849">
        <ele>1115.0907706391</ele>
        <time>2018-07-07T10:11:30Z</time>
      </trkpt>
      <trkpt lat="45.78205" lon="2.95797">
        <ele>1113.5719443555</ele>
        <time>2018-07-07T10:11:50Z</time>
      </trkpt>
      <trkpt lat="45.78184" lon="2.9578">
        <ele>1112.353609567</ele>
        <time>2018-07-07T10:12:09Z</time>
      </trkpt>
      <trkpt lat="45.78175" lon="2.95764">
        <ele>1111.4253393159</ele>
        <time>2018-07-07T10:12:28Z</time>
      </trkpt>
      <trkpt lat="45.78169" lon="2.95763">
        <ele>1110.8779168515</ele>
        <time>2018-07-07T10:12:47Z</time>
      </trkpt>
      <trkpt lat="45.78171" lon="2.95764">
        <ele>1110.1892802895</ele>
        <time>2018-07-07T10:13:06Z</time>
      </trkpt>
      <trkpt lat="45.7817" lon="2.95764">
        <ele>1109.7799893264</ele>
        <time>2018-07-07T10:13:43Z</time>
      </trkpt>
      <trkpt lat="45.78171" lon="2.95762">
        <ele>1108.9751749729</ele>
        <time>2018-07-07T10:15:01Z</time>
      </trkpt>
      <trkpt lat="45.78171" lon="2.95761">
        <ele>1108.5935001565</ele>
        <time>2018-07-07T10:15:22Z</time>
      </trkpt>
      <trkpt lat="45.78171" lon="2.95764">
        <ele>1107.9750295226</ele>
        <time>2018-07-07T10:15:41Z</time>
      </trkpt>
      <trkpt lat="45.78172" lon="2.95764">
        <ele>1106.4459997012</ele>
        <time>2018-07-07T10:16:38Z</time>
      </trkpt>
      <trkpt lat="45.78173" lon="2.95764">
        <ele>1105.7350447961</ele>
        <time>2018-07-07T10:17:23Z</time>
      </trkpt>
      <trkpt lat="45.78173" lon="2.95764">
        <ele>1105.3850101031</ele>
        <time>2018-07-07T10:17:48Z</time>
      </trkpt>
      <trkpt lat="45.78176" lon="2.95766">
        <ele>1104.7099672139</ele>
        <time>2018-07-07T10:18:08Z</time>
      </trkpt>
      <trkpt lat="45.78178" lon="2.95767">
        <ele>1103.7911143609</ele>
        <time>2018-07-07T10:18:28Z</time>
      </trkpt>
      <trkpt lat="45.78177" lon="2.95767">
        <ele>1103.4805103025</ele>
        <time>2018-07-07T10:18:49Z</time>
      </trkpt>
      <trkpt lat="45.78175" lon="2.95767">
        <ele>1102.2665712968</ele>
        <time>2018-07-07T10:19:08Z</time>
      </trkpt>
      <trkpt lat="45.78174" lon="2.95765">
        <ele>1101.3136274741</ele>
        <time>2018-07-07T10:19:28Z</time>
      </trkpt>
      <trkpt lat="45.78176" lon="2.95769">
        <ele>1099.1784911815</ele>
        <time>2018-07-07T10:19:48Z</time>
      </trkpt>
      <trkpt lat="45.78177" lon="2.95769">
        <ele>1098.7276342342</ele>
        <time>2018-07-07T10:20:17Z</time>
      </trkpt>
      <trkpt lat="45.78176" lon="2.9577">
        <ele>1098.0261903324</ele>
        <time>2018-07-07T10:21:10Z</time>
      </trkpt>
      <trkpt lat="45.78177" lon="2.9577">
        <ele>1097.5314093612</ele>
        <time>2018-07-07T10:21:44Z</time>
      </trkpt>
      <trkpt lat="45.78177" lon="2.9577">
        <ele>1097.1287554807</ele>
        <time>2018-07-07T10:22:11Z</time>
      </trkpt>
      <trkpt lat="45.78177" lon="2.95773">
        <ele>1096.8290050629</ele>
        <time>2018-07-07T10:22:30Z</time>
      </trkpt>
      <trkpt lat="45.78177" lon="2.95772">
        <ele>1095.5946003692</ele>
        <time>2018-07-07T10:23:34Z</time>
      </trkpt>
      <trkpt lat="45.78177" lon="2.95772">
        <ele>1095.2506488623</ele>
        <time>2018-07-07T10:23:55Z</time>
      </trkpt>
      <trkpt lat="45.78179" lon="2.95773">
        <ele>1094.4501522696</ele>
        <time>2018-07-07T10:24:14Z</time>
      </trkpt>
      <trkpt lat="45.78178" lon="2.95773">
        <ele>1093.8401160285</ele>
        <time>2018-07-07T10:24:52Z</time>
      </trkpt>
      <trkpt lat="45.78179" lon="2.95772">
        <ele>1093.54336705</ele>
        <time>2018-07-07T10:25:12Z</time>
      </trkpt>
      <trkpt lat="45.78179" lon="2.95771">
        <ele>1092.3172967267</ele>
        <time>2018-07-07T10:26:13Z</time>
      </trkpt>
      <trkpt lat="45.78177" lon="2.9577">
        <ele>1092.0563176794</ele>
        <time>2018-07-07T10:26:33Z</time>
      </trkpt>
      <trkpt lat="45.78176" lon="2.9577">
        <ele>1091.0662489924</ele>
        <time>2018-07-07T10:27:35Z</time>
      </trkpt>
      <trkpt lat="45.78175" lon="2.95772">
        <ele>1090.8275416252</ele>
        <time>2018-07-07T10:27:55Z</time>
      </trkpt>
      <trkpt lat="45.78176" lon="2.95773">
        <ele>1090.4738672753</ele>
        <time>2018-07-07T10:28:16Z</time>
      </trkpt>
      <trkpt lat="45.78177" lon="2.95771">
        <ele>1089.8503386688</ele>
        <time>2018-07-07T10:28:36Z</time>
      </trkpt>
      <trkpt lat="45.78177" lon="2.95772">
        <ele>1089.0134208884</ele>
        <time>2018-07-07T10:29:52Z</time>
      </trkpt>
      <trkpt lat="45.78177" lon="2.95773">
        <ele>1088.7292176383</ele>
        <time>2018-07-07T10:30:13Z</time>
      </trkpt>
      <trkpt lat="45.78176" lon="2.95774">
        <ele>1088.3714653949</ele>
        <time>2018-07-07T10:30:33Z</time>
      </trkpt>
      <trkpt lat="45.78176" lon="2.95773">
        <ele>1086.892822777</ele>
        <time>2018-07-07T10:32:13Z</time>
      </trkpt>
      <trkpt lat="45.78175" lon="2.95772">
        <ele>1086.3488744278</ele>
        <time>2018-07-07T10:32:32Z</time>
      </trkpt>
      <trkpt lat="45.78176" lon="2.95768">
        <ele>1085.9877746676</ele>
        <time>2018-07-07T10:32:52Z</time>
      </trkpt>
      <trkpt lat="45.78176" lon="2.95769">
        <ele>1085.8856347012</ele>
        <time>2018-07-07T10:33:11Z</time>
      </trkpt>
      <trkpt lat="45.78179" lon="2.95768">
        <ele>1085.6984547036</ele>
        <time>2018-07-07T10:33:30Z</time>
      </trkpt>
      <trkpt lat="45.7818" lon="2.95771">
        <ele>1085.5157880939</ele>
        <time>2018-07-07T10:33:50Z</time>
      </trkpt>
      <trkpt lat="45.78179" lon="2.95771">
        <ele>1085.3646397016</ele>
        <time>2018-07-07T10:34:13Z</time>
      </trkpt>
      <trkpt lat="45.7818" lon="2.95772">
        <ele>1085.2451028779</ele>
        <time>2018-07-07T10:34:33Z</time>
      </trkpt>
      <trkpt lat="45.78179" lon="2.95772">
        <ele>1085.0287810198</ele>
        <time>2018-07-07T10:35:07Z</time>
      </trkpt>
      <trkpt lat="45.78178" lon="2.95773">
        <ele>1084.96469066</ele>
        <time>2018-07-07T10:35:26Z</time>
      </trkpt>
      <trkpt lat="45.78177" lon="2.95771">
        <ele>1084.8457892069</ele>
        <time>2018-07-07T10:35:45Z</time>
      </trkpt>
      <trkpt lat="45.78178" lon="2.95771">
        <ele>1084.6956285267</ele>
        <time>2018-07-07T10:36:21Z</time>
      </trkpt>
      <trkpt lat="45.78178" lon="2.95772">
        <ele>1084.6126697604</ele>
        <time>2018-07-07T10:36:43Z</time>
      </trkpt>
      <trkpt lat="45.78176" lon="2.9577">
        <ele>1084.4679567718</ele>
        <time>2018-07-07T10:37:03Z</time>
      </trkpt>
      <trkpt lat="45.78176" lon="2.95772">
        <ele>1084.3316757911</ele>
        <time>2018-07-07T10:37:22Z</time>
      </trkpt>
      <trkpt lat="45.78175" lon="2.95775">
        <ele>1084.1867610663</ele>
        <time>2018-07-07T10:37:41Z</time>
      </trkpt>
      <trkpt lat="45.78176" lon="2.95774">
        <ele>1083.9342897094</ele>
        <time>2018-07-07T10:38:00Z</time>
      </trkpt>
      <trkpt lat="45.78178" lon="2.95772">
        <ele>1083.7456996279</ele>
        <time>2018-07-07T10:38:19Z</time>
      </trkpt>
      <trkpt lat="45.78178" lon="2.95775">
        <ele>1083.5772129918</ele>
        <time>2018-07-07T10:38:38Z</time>
      </trkpt>
      <trkpt lat="45.78182" lon="2.95765">
        <ele>1083.4466446728</ele>
        <time>2018-07-07T10:38:57Z</time>
      </trkpt>
      <trkpt lat="45.78183" lon="2.95764">
        <ele>1083.3625329819</ele>
        <time>2018-07-07T10:39:17Z</time>
      </trkpt>
      <trkpt lat="45.78185" lon="2.95765">
        <ele>1083.29323952</ele>
        <time>2018-07-07T10:39:36Z</time>
      </trkpt>
      <trkpt lat="45.78183" lon="2.95766">
        <ele>1083.2103955142</ele>
        <time>2018-07-07T10:39:55Z</time>
      </trkpt>
      <trkpt lat="45.78181" lon="2.95767">
        <ele>1083.1868119571</ele>
        <time>2018-07-07T10:40:15Z</time>
      </trkpt>
      <trkpt lat="45.7818" lon="2.95768">
        <ele>1083.1641410427</ele>
        <time>2018-07-07T10:40:34Z</time>
      </trkpt>
      <trkpt lat="45.7818" lon="2.9577">
        <ele>1083.1499960889</ele>
        <time>2018-07-07T10:40:53Z</time>
      </trkpt>
      <trkpt lat="45.78183" lon="2.95766">
        <ele>1083.1143621843</ele>
        <time>2018-07-07T10:41:12Z</time>
      </trkpt>
      <trkpt lat="45.78182" lon="2.95766">
        <ele>1083.0901356234</ele>
        <time>2018-07-07T10:41:31Z</time>
      </trkpt>
      <trkpt lat="45.78181" lon="2.95767">
        <ele>1083.0724201219</ele>
        <time>2018-07-07T10:41:51Z</time>
      </trkpt>
      <trkpt lat="45.78181" lon="2.95766">
        <ele>1083.0553145668</ele>
        <time>2018-07-07T10:42:12Z</time>
      </trkpt>
      <trkpt lat="45.78185" lon="2.95763">
        <ele>1083.033742206</ele>
        <time>2018-07-07T10:42:30Z</time>
      </trkpt>
      <trkpt lat="45.78183" lon="2.95763">
        <ele>1083.0197955218</ele>
        <time>2018-07-07T10:42:49Z</time>
      </trkpt>
      <trkpt lat="45.78183" lon="2.95765">
        <ele>1082.996364164</ele>
        <time>2018-07-07T10:43:09Z</time>
      </trkpt>
      <trkpt lat="45.78183" lon="2.95764">
        <ele>1082.9818149316</ele>
        <time>2018-07-07T10:43:28Z</time>
      </trkpt>
      <trkpt lat="45.78184" lon="2.95762">
        <ele>1082.9604127235</ele>
        <time>2018-07-07T10:43:48Z</time>
      </trkpt>
      <trkpt lat="45.78182" lon="2.95766">
        <ele>1082.9439174255</ele>
        <time>2018-07-07T10:44:07Z</time>
      </trkpt>
      <trkpt lat="45.7818" lon="2.95765">
        <ele>1082.9289505412</ele>
        <time>2018-07-07T10:44:26Z</time>
      </trkpt>
      <trkpt lat="45.78178" lon="2.95769">
        <ele>1082.9275163113</ele>
        <time>2018-07-07T10:44:46Z</time>
      </trkpt>
      <trkpt lat="45.78177" lon="2.95769">
        <ele>1082.9370481772</ele>
        <time>2018-07-07T10:45:05Z</time>
      </trkpt>
      <trkpt lat="45.78176" lon="2.95768">
        <ele>1082.9474366233</ele>
        <time>2018-07-07T10:45:26Z</time>
      </trkpt>
      <trkpt lat="45.78175" lon="2.95771">
        <ele>1082.9673364635</ele>
        <time>2018-07-07T10:45:45Z</time>
      </trkpt>
      <trkpt lat="45.78175" lon="2.95773">
        <ele>1082.9799270076</ele>
        <time>2018-07-07T10:46:04Z</time>
      </trkpt>
      <trkpt lat="45.7818" lon="2.9577">
        <ele>1083.0269268395</ele>
        <time>2018-07-07T10:46:24Z</time>
      </trkpt>
      <trkpt lat="45.78181" lon="2.95769">
        <ele>1083.0597451594</ele>
        <time>2018-07-07T10:46:55Z</time>
      </trkpt>
      <trkpt lat="45.78178" lon="2.9577">
        <ele>1083.0798680648</ele>
        <time>2018-07-07T10:47:15Z</time>
      </trkpt>
      <trkpt lat="45.78178" lon="2.95751">
        <ele>1083.0972704403</ele>
        <time>2018-07-07T10:47:35Z</time>
      </trkpt>
      <trkpt lat="45.78165" lon="2.95735">
        <ele>1083.1125169657</ele>
        <time>2018-07-07T10:47:54Z</time>
      </trkpt>
      <trkpt lat="45.78152" lon="2.95711">
        <ele>1083.0836580391</ele>
        <time>2018-07-07T10:48:13Z</time>
      </trkpt>
      <trkpt lat="45.78144" lon="2.95684">
        <ele>1083.0025241796</ele>
        <time>2018-07-07T10:48:32Z</time>
      </trkpt>
      <trkpt lat="45.7814" lon="2.95652">
        <ele>1082.8693457144</ele>
        <time>2018-07-07T10:48:52Z</time>
      </trkpt>
      <trkpt lat="45.78129" lon="2.95621">
        <ele>1082.7820345907</ele>
        <time>2018-07-07T10:49:11Z</time>
      </trkpt>
      <trkpt lat="45.78114" lon="2.95596">
        <ele>1082.6874719239</ele>
        <time>2018-07-07T10:49:30Z</time>
      </trkpt>
      <trkpt lat="45.78102" lon="2.95569">
        <ele>1082.6054148181</ele>
        <time>2018-07-07T10:49:50Z</time>
      </trkpt>
      <trkpt lat="45.7809" lon="2.95541">
        <ele>1082.5310764225</ele>
        <time>2018-07-07T10:50:08Z</time>
      </trkpt>
      <trkpt lat="45.78076" lon="2.95519">
        <ele>1082.4885097166</ele>
        <time>2018-07-07T10:50:27Z</time>
      </trkpt>
      <trkpt lat="45.78063" lon="2.95483">
        <ele>1082.4369109027</ele>
        <time>2018-07-07T10:50:47Z</time>
      </trkpt>
      <trkpt lat="45.78057" lon="2.95455">
        <ele>1082.38465942</ele>
        <time>2018-07-07T10:51:06Z</time>
      </trkpt>
      <trkpt lat="45.78043" lon="2.9543">
        <ele>1082.3520107334</ele>
        <time>2018-07-07T10:51:26Z</time>
      </trkpt>
      <trkpt lat="45.78039" lon="2.95414">
        <ele>1082.3265708804</ele>
        <time>2018-07-07T10:51:46Z</time>
      </trkpt>
      <trkpt lat="45.78035" lon="2.9541">
        <ele>1082.3176789944</ele>
        <time>2018-07-07T10:52:05Z</time>
      </trkpt>
      <trkpt lat="45.78032" lon="2.95395">
        <ele>1082.2986741574</ele>
        <time>2018-07-07T10:52:24Z</time>
      </trkpt>
      <trkpt lat="45.78028" lon="2.95382">
        <ele>1082.2744186022</ele>
        <time>2018-07-07T10:52:44Z</time>
      </trkpt>
      <trkpt lat="45.78018" lon="2.95374">
        <ele>1082.255435208</ele>
        <time>2018-07-07T10:53:03Z</time>
      </trkpt>
      <trkpt lat="45.78004" lon="2.95353">
        <ele>1082.2278006303</ele>
        <time>2018-07-07T10:53:23Z</time>
      </trkpt>
      <trkpt lat="45.77986" lon="2.95345">
        <ele>1082.150126233</ele>
        <time>2018-07-07T10:53:42Z</time>
      </trkpt>
      <trkpt lat="45.77964" lon="2.95339">
        <ele>1082.0310456877</ele>
        <time>2018-07-07T10:54:01Z</time>
      </trkpt>
      <trkpt lat="45.77939" lon="2.95322">
        <ele>1081.8720372598</ele>
        <time>2018-07-07T10:54:21Z</time>
      </trkpt>
      <trkpt lat="45.77919" lon="2.95309">
        <ele>1081.7343201313</ele>
        <time>2018-07-07T10:54:41Z</time>
      </trkpt>
      <trkpt lat="45.77896" lon="2.95296">
        <ele>1081.5952561481</ele>
        <time>2018-07-07T10:55:01Z</time>
      </trkpt>
      <trkpt lat="45.77874" lon="2.95278">
        <ele>1081.4264234572</ele>
        <time>2018-07-07T10:55:21Z</time>
      </trkpt>
      <trkpt lat="45.77853" lon="2.9528">
        <ele>1081.2768354255</ele>
        <time>2018-07-07T10:55:40Z</time>
      </trkpt>
      <trkpt lat="45.77827" lon="2.95265">
        <ele>1081.1209238381</ele>
        <time>2018-07-07T10:56:00Z</time>
      </trkpt>
      <trkpt lat="45.77821" lon="2.95251">
        <ele>1080.8164318737</ele>
        <time>2018-07-07T10:56:19Z</time>
      </trkpt>
      <trkpt lat="45.77821" lon="2.95256">
        <ele>1080.8016591903</ele>
        <time>2018-07-07T10:56:21Z</time>
      </trkpt>
      <trkpt lat="45.77832" lon="2.95273">
        <ele>1080.7464206935</ele>
        <time>2018-07-07T10:56:41Z</time>
      </trkpt>
      <trkpt lat="45.77809" lon="2.95262">
        <ele>1080.6243559704</ele>
        <time>2018-07-07T10:57:00Z</time>
      </trkpt>
      <trkpt lat="45.77795" lon="2.95253">
        <ele>1080.5283605305</ele>
        <time>2018-07-07T10:57:20Z</time>
      </trkpt>
      <trkpt lat="45.77767" lon="2.95248">
        <ele>1080.2046576275</ele>
        <time>2018-07-07T10:57:39Z</time>
      </trkpt>
      <trkpt lat="45.77745" lon="2.95241">
        <ele>1079.7439161901</ele>
        <time>2018-07-07T10:57:59Z</time>
      </trkpt>
      <trkpt lat="45.77727" lon="2.95227">
        <ele>1079.2003327332</ele>
        <time>2018-07-07T10:58:18Z</time>
      </trkpt>
      <trkpt lat="45.77715" lon="2.95222">
        <ele>1078.6390250898</ele>
        <time>2018-07-07T10:58:37Z</time>
      </trkpt>
      <trkpt lat="45.77687" lon="2.95234">
        <ele>1077.9391742001</ele>
        <time>2018-07-07T10:58:57Z</time>
      </trkpt>
      <trkpt lat="45.77647" lon="2.95257">
        <ele>1077.2674433557</ele>
        <time>2018-07-07T10:59:17Z</time>
      </trkpt>
      <trkpt lat="45.77632" lon="2.95265">
        <ele>1076.8501507708</ele>
        <time>2018-07-07T10:59:37Z</time>
      </trkpt>
      <trkpt lat="45.77614" lon="2.9527">
        <ele>1076.7085097786</ele>
        <time>2018-07-07T10:59:56Z</time>
      </trkpt>
      <trkpt lat="45.77585" lon="2.95292">
        <ele>1076.5809463325</ele>
        <time>2018-07-07T11:00:16Z</time>
      </trkpt>
      <trkpt lat="45.77571" lon="2.95294">
        <ele>1076.4119034258</ele>
        <time>2018-07-07T11:00:35Z</time>
      </trkpt>
      <trkpt lat="45.77548" lon="2.95271">
        <ele>1076.1554384682</ele>
        <time>2018-07-07T11:00:54Z</time>
      </trkpt>
      <trkpt lat="45.77534" lon="2.95237">
        <ele>1075.7071658162</ele>
        <time>2018-07-07T11:01:14Z</time>
      </trkpt>
      <trkpt lat="45.77515" lon="2.9522">
        <ele>1075.3608657946</ele>
        <time>2018-07-07T11:01:34Z</time>
      </trkpt>
      <trkpt lat="45.77497" lon="2.95212">
        <ele>1075.0786329164</ele>
        <time>2018-07-07T11:01:53Z</time>
      </trkpt>
      <trkpt lat="45.77473" lon="2.95203">
        <ele>1074.5993845294</ele>
        <time>2018-07-07T11:02:13Z</time>
      </trkpt>
      <trkpt lat="45.7745" lon="2.952">
        <ele>1074.1286825228</ele>
        <time>2018-07-07T11:02:33Z</time>
      </trkpt>
      <trkpt lat="45.77424" lon="2.95195">
        <ele>1073.7479493789</ele>
        <time>2018-07-07T11:02:52Z</time>
      </trkpt>
      <trkpt lat="45.77403" lon="2.95192">
        <ele>1073.4573220103</ele>
        <time>2018-07-07T11:03:11Z</time>
      </trkpt>
      <trkpt lat="45.77387" lon="2.95184">
        <ele>1073.1771850935</ele>
        <time>2018-07-07T11:03:31Z</time>
      </trkpt>
      <trkpt lat="45.77364" lon="2.95188">
        <ele>1072.9207986283</ele>
        <time>2018-07-07T11:03:51Z</time>
      </trkpt>
      <trkpt lat="45.77345" lon="2.95189">
        <ele>1072.7120939674</ele>
        <time>2018-07-07T11:04:10Z</time>
      </trkpt>
      <trkpt lat="45.77321" lon="2.95187">
        <ele>1072.6072648213</ele>
        <time>2018-07-07T11:04:30Z</time>
      </trkpt>
      <trkpt lat="45.773" lon="2.95193">
        <ele>1072.624198481</ele>
        <time>2018-07-07T11:04:50Z</time>
      </trkpt>
      <trkpt lat="45.77275" lon="2.952">
        <ele>1072.6379480764</ele>
        <time>2018-07-07T11:05:09Z</time>
      </trkpt>
      <trkpt lat="45.7725" lon="2.952">
        <ele>1072.6067508371</ele>
        <time>2018-07-07T11:05:28Z</time>
      </trkpt>
      <trkpt lat="45.77228" lon="2.95212">
        <ele>1072.5256722191</ele>
        <time>2018-07-07T11:05:47Z</time>
      </trkpt>
      <trkpt lat="45.77209" lon="2.95216">
        <ele>1072.5303354813</ele>
        <time>2018-07-07T11:06:06Z</time>
      </trkpt>
      <trkpt lat="45.77188" lon="2.95228">
        <ele>1072.5996724903</ele>
        <time>2018-07-07T11:06:26Z</time>
      </trkpt>
      <trkpt lat="45.77169" lon="2.95225">
        <ele>1072.653556242</ele>
        <time>2018-07-07T11:06:46Z</time>
      </trkpt>
      <trkpt lat="45.77149" lon="2.95227">
        <ele>1072.7948737072</ele>
        <time>2018-07-07T11:07:05Z</time>
      </trkpt>
      <trkpt lat="45.77129" lon="2.95235">
        <ele>1072.9886383365</ele>
        <time>2018-07-07T11:07:25Z</time>
      </trkpt>
      <trkpt lat="45.77112" lon="2.95248">
        <ele>1073.2091860099</ele>
        <time>2018-07-07T11:07:45Z</time>
      </trkpt>
      <trkpt lat="45.77089" lon="2.95265">
        <ele>1073.5271976925</ele>
        <time>2018-07-07T11:08:04Z</time>
      </trkpt>
      <trkpt lat="45.77066" lon="2.95281">
        <ele>1073.8959602582</ele>
        <time>2018-07-07T11:08:24Z</time>
      </trkpt>
      <trkpt lat="45.77037" lon="2.9529">
        <ele>1074.2367084547</ele>
        <time>2018-07-07T11:08:43Z</time>
      </trkpt>
      <trkpt lat="45.77014" lon="2.95306">
        <ele>1074.5291381783</ele>
        <time>2018-07-07T11:09:02Z</time>
      </trkpt>
      <trkpt lat="45.76991" lon="2.95306">
        <ele>1074.8581565612</ele>
        <time>2018-07-07T11:09:21Z</time>
      </trkpt>
      <trkpt lat="45.76965" lon="2.95312">
        <ele>1075.2218202257</ele>
        <time>2018-07-07T11:09:41Z</time>
      </trkpt>
      <trkpt lat="45.76937" lon="2.95331">
        <ele>1075.6639847378</ele>
        <time>2018-07-07T11:10:00Z</time>
      </trkpt>
      <trkpt lat="45.76912" lon="2.95344">
        <ele>1076.0969848192</ele>
        <time>2018-07-07T11:10:20Z</time>
      </trkpt>
      <trkpt lat="45.7688" lon="2.95364">
        <ele>1076.449158279</ele>
        <time>2018-07-07T11:10:39Z</time>
      </trkpt>
      <trkpt lat="45.76853" lon="2.95376">
        <ele>1076.768914772</ele>
        <time>2018-07-07T11:10:58Z</time>
      </trkpt>
      <trkpt lat="45.76823" lon="2.95392">
        <ele>1077.1170338028</ele>
        <time>2018-07-07T11:11:18Z</time>
      </trkpt>
      <trkpt lat="45.768" lon="2.954">
        <ele>1077.5550105054</ele>
        <time>2018-07-07T11:11:38Z</time>
      </trkpt>
      <trkpt lat="45.76758" lon="2.954">
        <ele>1077.8673350134</ele>
        <time>2018-07-07T11:11:57Z</time>
      </trkpt>
      <trkpt lat="45.76734" lon="2.95397">
        <ele>1078.1312735696</ele>
        <time>2018-07-07T11:12:17Z</time>
      </trkpt>
      <trkpt lat="45.76704" lon="2.95403">
        <ele>1078.3060892624</ele>
        <time>2018-07-07T11:12:36Z</time>
      </trkpt>
      <trkpt lat="45.76663" lon="2.95416">
        <ele>1078.4507175495</ele>
        <time>2018-07-07T11:12:56Z</time>
      </trkpt>
      <trkpt lat="45.76637" lon="2.95433">
        <ele>1078.552936531</ele>
        <time>2018-07-07T11:13:16Z</time>
      </trkpt>
      <trkpt lat="45.76612" lon="2.95461">
        <ele>1078.6619375652</ele>
        <time>2018-07-07T11:13:35Z</time>
      </trkpt>
      <trkpt lat="45.7659" lon="2.95476">
        <ele>1078.8088600829</ele>
        <time>2018-07-07T11:13:55Z</time>
      </trkpt>
      <trkpt lat="45.7657" lon="2.95488">
        <ele>1078.7506968668</ele>
        <time>2018-07-07T11:14:14Z</time>
      </trkpt>
      <trkpt lat="45.7657" lon="2.95491">
        <ele>1078.7792580553</ele>
        <time>2018-07-07T11:14:34Z</time>
      </trkpt>
      <trkpt lat="45.76568" lon="2.95491">
        <ele>1078.7993863397</ele>
        <time>2018-07-07T11:14:53Z</time>
      </trkpt>
      <trkpt lat="45.76568" lon="2.95491">
        <ele>1078.8850906493</ele>
        <time>2018-07-07T11:15:14Z</time>
      </trkpt>
      <trkpt lat="45.76567" lon="2.9549">
        <ele>1079.2298858971</ele>
        <time>2018-07-07T11:15:39Z</time>
      </trkpt>
      <trkpt lat="45.76566" lon="2.95487">
        <ele>1079.4307140678</ele>
        <time>2018-07-07T11:15:59Z</time>
      </trkpt>
      <trkpt lat="45.76565" lon="2.95486">
        <ele>1079.6357368235</ele>
        <time>2018-07-07T11:16:19Z</time>
      </trkpt>
      <trkpt lat="45.76563" lon="2.95483">
        <ele>1080.0966777772</ele>
        <time>2018-07-07T11:16:39Z</time>
      </trkpt>
      <trkpt lat="45.76551" lon="2.95489">
        <ele>1081.6847008514</ele>
        <time>2018-07-07T11:16:59Z</time>
      </trkpt>
      <trkpt lat="45.76547" lon="2.95489">
        <ele>1082.2529621334</ele>
        <time>2018-07-07T11:17:19Z</time>
      </trkpt>
      <trkpt lat="45.76518" lon="2.95505">
        <ele>1083.0926683141</ele>
        <time>2018-07-07T11:17:39Z</time>
      </trkpt>
      <trkpt lat="45.76483" lon="2.95515">
        <ele>1083.7340756354</ele>
        <time>2018-07-07T11:17:59Z</time>
      </trkpt>
      <trkpt lat="45.76462" lon="2.95517">
        <ele>1084.0572021714</ele>
        <time>2018-07-07T11:18:18Z</time>
      </trkpt>
      <trkpt lat="45.76438" lon="2.95539">
        <ele>1084.1265744357</ele>
        <time>2018-07-07T11:18:37Z</time>
      </trkpt>
      <trkpt lat="45.76438" lon="2.95538">
        <ele>1084.1259065294</ele>
        <time>2018-07-07T11:18:42Z</time>
      </trkpt>
      <trkpt lat="45.76438" lon="2.95538">
        <ele>1084.1259065294</ele>
        <time>2018-07-07T11:18:43Z</time>
      </trkpt>
    </trkseg>
  </trk>
</gpx>